ACA15 CYYZ-VHHH
Flight info
| Callsign | ACA15 |
|---|---|
| Flight time | N/A |
| Altitude | 30000 |
| Route | ARROW4 YYZ DCT YEE DCT 50N082W/N0488F310 55N083W 60N084W/N0487F320 65N087W 70N092W 75N101W/N0490F340 80N125W DCT NAMWE DCT NARAL/K0904F340 DCT 81N176E 80N166E 7830N15600E 76N147E DCT RUTIN/K0893F360 M177 UTS N622 GETRU/K0891F380 B227 NAREM B161 SULOK/K0887S1160 Y327 POLHO G218 TMR/K0878S1130 B458 VADKA/K0878S1190 B458 DADGA/K0887S1160 W37 GUSIV/K0885S1190 W37 PEXID/K0887S1160 W37 OMBEB/K0887S1190 R473 NNX/K0889S1220 R473 WYN W18 NLG W23 ZUH R473 SIERA |
| Aircraft | B77L/H-SDE1E2E3FGHIJ2J3J4J5M1RWXY/LB1D1 |
Departure
| Time | N/A |
|---|---|
| Airport | Toronto Pearson International Airport (CYYZ) |
Arrival
| Time | 2026-04-30 12:23 |
|---|---|
| Airport | Hong Kong International Airport (VHHH) |
| Time | Latitude | Longitude | Altitude | Speed | Heading |
|---|---|---|---|---|---|
| 2026-04-30 04:51 | 76.93061 | 149.83808 | 30200 ft | 477 kts | 218° |
| 2026-04-30 04:51 | 76.87725 | 149.66184 | 30201 ft | 477 kts | 218° |
| 2026-04-30 04:52 | 76.82375 | 149.48689 | 30521 ft | 484 kts | 218° |
| 2026-04-30 04:52 | 76.79664 | 149.39893 | 30918 ft | 484 kts | 218° |
| 2026-04-30 04:52 | 76.76953 | 149.31142 | 31339 ft | 484 kts | 218° |
| 2026-04-30 04:52 | 76.74238 | 149.22427 | 31669 ft | 485 kts | 218° |
| 2026-04-30 04:53 | 76.71506 | 149.13696 | 32001 ft | 487 kts | 218° |
| 2026-04-30 04:53 | 76.68803 | 149.05103 | 32378 ft | 487 kts | 218° |
| 2026-04-30 04:53 | 76.66129 | 148.96645 | 32750 ft | 487 kts | 218° |
| 2026-04-30 04:53 | 76.63383 | 148.88004 | 33107 ft | 488 kts | 217° |
| 2026-04-30 04:54 | 76.60615 | 148.79336 | 33447 ft | 488 kts | 217° |
| 2026-04-30 04:54 | 76.57894 | 148.70861 | 33778 ft | 489 kts | 217° |
| 2026-04-30 04:54 | 76.55125 | 148.62278 | 34125 ft | 490 kts | 217° |
| 2026-04-30 04:54 | 76.52353 | 148.53730 | 34410 ft | 490 kts | 217° |
| 2026-04-30 04:55 | 76.49573 | 148.45202 | 34684 ft | 490 kts | 217° |
| 2026-04-30 04:55 | 76.46791 | 148.36711 | 34946 ft | 491 kts | 217° |
| 2026-04-30 04:55 | 76.44006 | 148.28253 | 35116 ft | 493 kts | 217° |
| 2026-04-30 04:56 | 76.38398 | 148.11349 | 35193 ft | 493 kts | 217° |
| 2026-04-30 04:56 | 76.32864 | 147.94835 | 35191 ft | 491 kts | 216° |
| 2026-04-30 04:57 | 76.27306 | 147.78416 | 35193 ft | 489 kts | 216° |
| 2026-04-30 04:57 | 76.21725 | 147.62087 | 35195 ft | 488 kts | 216° |
| 2026-04-30 04:58 | 76.16143 | 147.45912 | 35199 ft | 488 kts | 216° |
| 2026-04-30 04:58 | 76.10547 | 147.29856 | 35182 ft | 488 kts | 216° |
| 2026-04-30 04:59 | 76.04927 | 147.13875 | 35195 ft | 489 kts | 216° |
| 2026-04-30 04:59 | 75.99384 | 146.98162 | 35194 ft | 490 kts | 218° |
| 2026-04-30 05:00 | 75.93986 | 146.80940 | 35201 ft | 490 kts | 219° |
| 2026-04-30 05:00 | 75.88575 | 146.63778 | 35196 ft | 492 kts | 219° |
| 2026-04-30 05:01 | 75.83131 | 146.46744 | 35191 ft | 493 kts | 219° |
| 2026-04-30 05:01 | 75.77666 | 146.29834 | 35176 ft | 493 kts | 219° |
| 2026-04-30 05:02 | 75.72185 | 146.13039 | 35183 ft | 494 kts | 219° |
| 2026-04-30 05:02 | 75.66770 | 145.96599 | 35183 ft | 494 kts | 218° |
| 2026-04-30 05:03 | 75.61260 | 145.80030 | 35183 ft | 494 kts | 218° |
| 2026-04-30 05:03 | 75.55739 | 145.63586 | 35182 ft | 494 kts | 218° |
| 2026-04-30 05:04 | 75.50207 | 145.47266 | 35182 ft | 494 kts | 218° |
| 2026-04-30 05:04 | 75.44662 | 145.31061 | 35172 ft | 493 kts | 218° |
| 2026-04-30 05:05 | 75.39150 | 145.15103 | 35181 ft | 493 kts | 218° |
| 2026-04-30 05:05 | 75.33644 | 144.99310 | 35181 ft | 493 kts | 218° |
| 2026-04-30 05:06 | 75.25282 | 144.75603 | 35184 ft | 493 kts | 217° |
| 2026-04-30 05:06 | 75.19697 | 144.59954 | 35180 ft | 493 kts | 217° |
| 2026-04-30 05:07 | 75.14093 | 144.44399 | 35180 ft | 493 kts | 217° |
| 2026-04-30 05:07 | 75.08489 | 144.28982 | 35181 ft | 494 kts | 217° |
| 2026-04-30 05:08 | 75.02902 | 144.13752 | 35181 ft | 494 kts | 217° |
| 2026-04-30 05:08 | 74.97348 | 143.98751 | 35179 ft | 494 kts | 217° |
| 2026-04-30 05:09 | 74.91700 | 143.83631 | 35179 ft | 494 kts | 217° |
| 2026-04-30 05:09 | 74.86046 | 143.68636 | 35159 ft | 494 kts | 217° |
| 2026-04-30 05:10 | 74.80382 | 143.53746 | 35168 ft | 494 kts | 216° |
| 2026-04-30 05:10 | 74.74699 | 143.38941 | 35171 ft | 494 kts | 216° |
| 2026-04-30 05:11 | 74.69010 | 143.24252 | 35169 ft | 495 kts | 216° |
| 2026-04-30 05:11 | 74.63309 | 143.09664 | 35166 ft | 495 kts | 216° |
| 2026-04-30 05:12 | 74.57694 | 142.95420 | 35169 ft | 495 kts | 216° |
| 2026-04-30 05:12 | 74.51966 | 142.81019 | 35154 ft | 495 kts | 216° |
| 2026-04-30 05:13 | 74.46233 | 142.66732 | 35163 ft | 495 kts | 216° |
| 2026-04-30 05:13 | 74.40491 | 142.52547 | 35157 ft | 495 kts | 216° |
| 2026-04-30 05:14 | 74.34728 | 142.38436 | 35155 ft | 496 kts | 215° |
| 2026-04-30 05:14 | 74.28967 | 142.24450 | 35156 ft | 496 kts | 215° |
| 2026-04-30 05:15 | 74.23222 | 142.10624 | 35132 ft | 496 kts | 215° |
| 2026-04-30 05:15 | 74.17493 | 141.96958 | 35151 ft | 496 kts | 215° |
| 2026-04-30 05:16 | 74.11698 | 141.83246 | 35152 ft | 496 kts | 215° |
| 2026-04-30 05:16 | 74.05891 | 141.69628 | 35145 ft | 496 kts | 215° |
| 2026-04-30 05:17 | 74.00071 | 141.56095 | 35143 ft | 496 kts | 214° |
| 2026-04-30 05:17 | 73.94250 | 141.42673 | 35133 ft | 497 kts | 214° |
| 2026-04-30 05:18 | 73.88413 | 141.29328 | 35124 ft | 497 kts | 214° |
| 2026-04-30 05:18 | 73.82601 | 141.16152 | 35129 ft | 497 kts | 214° |
| 2026-04-30 05:19 | 73.76743 | 141.02982 | 35129 ft | 497 kts | 214° |
| 2026-04-30 05:19 | 73.70948 | 140.90061 | 35115 ft | 497 kts | 214° |
| 2026-04-30 05:20 | 73.65068 | 140.77059 | 35117 ft | 498 kts | 214° |
| 2026-04-30 05:20 | 73.59223 | 140.64231 | 35094 ft | 497 kts | 214° |
| 2026-04-30 05:21 | 73.53373 | 140.51165 | 35109 ft | 496 kts | 216° |
| 2026-04-30 05:21 | 73.47668 | 140.37541 | 35116 ft | 496 kts | 217° |
| 2026-04-30 05:22 | 73.41955 | 140.23894 | 35111 ft | 497 kts | 216° |
| 2026-04-30 05:22 | 73.36201 | 140.10402 | 35112 ft | 497 kts | 216° |
| 2026-04-30 05:23 | 73.30497 | 139.97222 | 35100 ft | 497 kts | 216° |
| 2026-04-30 05:23 | 73.24736 | 139.84032 | 35100 ft | 497 kts | 216° |
| 2026-04-30 05:24 | 73.18938 | 139.70859 | 35096 ft | 498 kts | 216° |
| 2026-04-30 05:24 | 73.13127 | 139.57757 | 35094 ft | 498 kts | 216° |
| 2026-04-30 05:25 | 73.08294 | 139.46940 | 35094 ft | 498 kts | 215° |
| 2026-04-30 05:25 | 73.01534 | 139.31931 | 35095 ft | 498 kts | 215° |
| 2026-04-30 05:26 | 72.96662 | 139.21201 | 35068 ft | 498 kts | 215° |
| 2026-04-30 05:26 | 72.90876 | 139.08553 | 35078 ft | 497 kts | 215° |
| 2026-04-30 05:27 | 72.85095 | 138.96012 | 35086 ft | 497 kts | 215° |
| 2026-04-30 05:27 | 72.79252 | 138.83438 | 35080 ft | 498 kts | 215° |
| 2026-04-30 05:28 | 72.73388 | 138.70918 | 35082 ft | 498 kts | 215° |
| 2026-04-30 05:28 | 72.67522 | 138.58492 | 35073 ft | 498 kts | 214° |
| 2026-04-30 05:29 | 72.61640 | 138.46132 | 35070 ft | 498 kts | 215° |
| 2026-04-30 05:29 | 72.55786 | 138.33924 | 35061 ft | 498 kts | 214° |
| 2026-04-30 05:30 | 72.49890 | 138.21721 | 35063 ft | 499 kts | 214° |
| 2026-04-30 05:30 | 72.43986 | 138.09598 | 35057 ft | 499 kts | 214° |
| 2026-04-30 05:31 | 72.38136 | 137.97668 | 35058 ft | 499 kts | 214° |
| 2026-04-30 05:31 | 72.32207 | 137.85679 | 35036 ft | 499 kts | 214° |
| 2026-04-30 05:32 | 72.26282 | 137.73789 | 35052 ft | 499 kts | 214° |
| 2026-04-30 05:32 | 72.20378 | 137.62021 | 35049 ft | 499 kts | 214° |
| 2026-04-30 05:33 | 72.14428 | 137.50243 | 35047 ft | 500 kts | 214° |
| 2026-04-30 05:33 | 72.08504 | 137.38607 | 35038 ft | 500 kts | 214° |
| 2026-04-30 05:34 | 72.02526 | 137.26953 | 35013 ft | 500 kts | 214° |
| 2026-04-30 05:34 | 71.96563 | 137.15418 | 35033 ft | 500 kts | 214° |
| 2026-04-30 05:35 | 71.90574 | 137.03915 | 35039 ft | 501 kts | 214° |
| 2026-04-30 05:35 | 71.84645 | 136.92605 | 35039 ft | 501 kts | 214° |
| 2026-04-30 05:36 | 71.78671 | 136.81317 | 35033 ft | 502 kts | 213° |
| 2026-04-30 05:36 | 71.72648 | 136.70060 | 35029 ft | 502 kts | 213° |
| 2026-04-30 05:37 | 71.66619 | 136.58872 | 35020 ft | 501 kts | 214° |
| 2026-04-30 05:37 | 71.60581 | 136.47731 | 35025 ft | 502 kts | 214° |
| 2026-04-30 05:38 | 71.54536 | 136.36660 | 35019 ft | 502 kts | 213° |
| 2026-04-30 05:38 | 71.48480 | 136.25646 | 35019 ft | 502 kts | 213° |
| 2026-04-30 05:39 | 71.42185 | 136.16041 | 35017 ft | 508 kts | 202° |
| 2026-04-30 05:39 | 71.35329 | 136.10970 | 35000 ft | 513 kts | 189° |
| 2026-04-30 05:40 | 71.28221 | 136.08686 | 35008 ft | 514 kts | 188° |
| 2026-04-30 05:40 | 71.21095 | 136.06391 | 35013 ft | 515 kts | 189° |
| 2026-04-30 05:41 | 71.13965 | 136.03978 | 35010 ft | 516 kts | 189° |
| 2026-04-30 05:41 | 71.06819 | 136.01517 | 35006 ft | 516 kts | 189° |
| 2026-04-30 05:42 | 70.99750 | 135.99097 | 35003 ft | 517 kts | 189° |
| 2026-04-30 05:42 | 70.92648 | 135.96693 | 34969 ft | 517 kts | 189° |
| 2026-04-30 05:43 | 70.85485 | 135.94289 | 34998 ft | 517 kts | 189° |
| 2026-04-30 05:43 | 70.78329 | 135.91902 | 35005 ft | 517 kts | 189° |
| 2026-04-30 05:44 | 70.71163 | 135.89530 | 34999 ft | 518 kts | 189° |
| 2026-04-30 05:44 | 70.63988 | 135.87173 | 34998 ft | 518 kts | 189° |
| 2026-04-30 05:45 | 70.56805 | 135.84830 | 34996 ft | 519 kts | 189° |
| 2026-04-30 05:45 | 70.49624 | 135.82504 | 34947 ft | 519 kts | 189° |
| 2026-04-30 05:46 | 70.42489 | 135.80210 | 34978 ft | 518 kts | 189° |
| 2026-04-30 05:46 | 70.35310 | 135.77916 | 34985 ft | 519 kts | 189° |
| 2026-04-30 05:47 | 70.28115 | 135.75634 | 34981 ft | 519 kts | 189° |
| 2026-04-30 05:47 | 70.20960 | 135.73381 | 34970 ft | 520 kts | 189° |
| 2026-04-30 05:48 | 70.13760 | 135.71129 | 34968 ft | 520 kts | 189° |
| 2026-04-30 05:48 | 70.06572 | 135.68895 | 34913 ft | 519 kts | 188° |
| 2026-04-30 05:49 | 69.99457 | 135.65769 | 34946 ft | 515 kts | 196° |
| 2026-04-30 05:49 | 69.92684 | 135.59359 | 34958 ft | 511 kts | 204° |
| 2026-04-30 05:50 | 69.86003 | 135.52206 | 34934 ft | 512 kts | 203° |
| 2026-04-30 05:50 | 69.79290 | 135.45245 | 34934 ft | 512 kts | 203° |
| 2026-04-30 05:51 | 69.72616 | 135.38424 | 34926 ft | 512 kts | 203° |
| 2026-04-30 05:51 | 69.65888 | 135.31584 | 34923 ft | 513 kts | 203° |
| 2026-04-30 05:52 | 69.59151 | 135.24769 | 34914 ft | 513 kts | 203° |
| 2026-04-30 05:52 | 69.52405 | 135.17987 | 34916 ft | 513 kts | 203° |
| 2026-04-30 05:53 | 69.45666 | 135.11259 | 34918 ft | 513 kts | 202° |
| 2026-04-30 05:53 | 69.38916 | 135.04583 | 34915 ft | 513 kts | 202° |
| 2026-04-30 05:54 | 69.32278 | 134.98086 | 34891 ft | 513 kts | 202° |
| 2026-04-30 05:54 | 69.25527 | 134.91517 | 34899 ft | 513 kts | 201° |
| 2026-04-30 05:55 | 69.18765 | 134.84976 | 34910 ft | 513 kts | 201° |
| 2026-04-30 05:55 | 69.12043 | 134.78511 | 34907 ft | 513 kts | 201° |
| 2026-04-30 05:56 | 69.05285 | 134.72056 | 34915 ft | 513 kts | 201° |
| 2026-04-30 05:56 | 68.98530 | 134.65645 | 34906 ft | 513 kts | 201° |
| 2026-04-30 05:57 | 68.91765 | 134.59263 | 34904 ft | 513 kts | 201° |
| 2026-04-30 05:57 | 68.84992 | 134.52922 | 34914 ft | 513 kts | 201° |
| 2026-04-30 05:58 | 68.78223 | 134.46623 | 34911 ft | 513 kts | 201° |
| 2026-04-30 05:58 | 68.71482 | 134.40388 | 34911 ft | 513 kts | 201° |
| 2026-04-30 05:59 | 68.64704 | 134.34159 | 34911 ft | 513 kts | 200° |
| 2026-04-30 05:59 | 68.57921 | 134.27964 | 34901 ft | 514 kts | 200° |
| 2026-04-30 06:00 | 68.51134 | 134.21807 | 34907 ft | 514 kts | 200° |
| 2026-04-30 06:00 | 68.44336 | 134.15680 | 34905 ft | 514 kts | 200° |
| 2026-04-30 06:01 | 68.37535 | 134.09587 | 34904 ft | 515 kts | 199° |
| 2026-04-30 06:01 | 68.30732 | 134.03531 | 34895 ft | 515 kts | 199° |
| 2026-04-30 06:02 | 68.23988 | 133.97563 | 34887 ft | 514 kts | 199° |
| 2026-04-30 06:02 | 68.17185 | 133.91582 | 34888 ft | 514 kts | 199° |
| 2026-04-30 06:03 | 68.10430 | 133.85682 | 34886 ft | 514 kts | 199° |
| 2026-04-30 06:03 | 68.03627 | 133.79772 | 34889 ft | 513 kts | 199° |
| 2026-04-30 06:04 | 67.96840 | 133.73911 | 34886 ft | 513 kts | 199° |
| 2026-04-30 06:05 | 67.86638 | 133.65149 | 34877 ft | 513 kts | 198° |
| 2026-04-30 06:05 | 67.79841 | 133.59342 | 34886 ft | 513 kts | 198° |
| 2026-04-30 06:06 | 67.73033 | 133.53562 | 34884 ft | 513 kts | 198° |
| 2026-04-30 06:06 | 67.66233 | 133.47824 | 34882 ft | 513 kts | 198° |
| 2026-04-30 06:07 | 67.59441 | 133.42125 | 34880 ft | 513 kts | 197° |
| 2026-04-30 06:07 | 67.52683 | 133.36500 | 34876 ft | 512 kts | 197° |
| 2026-04-30 06:08 | 67.45881 | 133.30966 | 34882 ft | 512 kts | 196° |
| 2026-04-30 06:08 | 67.39068 | 133.25462 | 34881 ft | 512 kts | 196° |
| 2026-04-30 06:09 | 67.32266 | 133.19978 | 34879 ft | 512 kts | 196° |
| 2026-04-30 06:09 | 67.25457 | 133.14516 | 34897 ft | 512 kts | 196° |
| 2026-04-30 06:10 | 67.18656 | 133.09077 | 34879 ft | 511 kts | 195° |
| 2026-04-30 06:10 | 67.11858 | 133.03669 | 34872 ft | 511 kts | 195° |
| 2026-04-30 06:11 | 67.05173 | 132.98383 | 34872 ft | 510 kts | 195° |
| 2026-04-30 06:11 | 66.98388 | 132.93052 | 34871 ft | 509 kts | 195° |
| 2026-04-30 06:12 | 66.92748 | 132.88642 | 34878 ft | 509 kts | 195° |
| 2026-04-30 06:12 | 66.85953 | 132.83358 | 34867 ft | 509 kts | 195° |
| 2026-04-30 06:13 | 66.79172 | 132.78113 | 34870 ft | 508 kts | 194° |
| 2026-04-30 06:13 | 66.72447 | 132.72945 | 34863 ft | 508 kts | 194° |
| 2026-04-30 06:14 | 66.65684 | 132.67777 | 34870 ft | 507 kts | 194° |
| 2026-04-30 06:14 | 66.58918 | 132.62636 | 34864 ft | 507 kts | 194° |
| 2026-04-30 06:15 | 66.52151 | 132.57522 | 34875 ft | 507 kts | 194° |
| 2026-04-30 06:15 | 66.45437 | 132.52476 | 34863 ft | 506 kts | 194° |
| 2026-04-30 06:16 | 66.38690 | 132.47436 | 34853 ft | 505 kts | 194° |
| 2026-04-30 06:16 | 66.31947 | 132.42427 | 34855 ft | 505 kts | 194° |
| 2026-04-30 06:17 | 66.25221 | 132.37458 | 34849 ft | 504 kts | 194° |
| 2026-04-30 06:17 | 66.18492 | 132.32514 | 34852 ft | 504 kts | 194° |
| 2026-04-30 06:18 | 66.11761 | 132.27597 | 34849 ft | 504 kts | 194° |
| 2026-04-30 06:18 | 66.05025 | 132.22702 | 34857 ft | 504 kts | 193° |
| 2026-04-30 06:19 | 65.98342 | 132.17871 | 34849 ft | 504 kts | 193° |
| 2026-04-30 06:19 | 65.91604 | 132.13030 | 34854 ft | 504 kts | 193° |
| 2026-04-30 06:20 | 65.84861 | 132.08210 | 34855 ft | 505 kts | 193° |
| 2026-04-30 06:20 | 65.78121 | 132.03414 | 34861 ft | 504 kts | 193° |
| 2026-04-30 06:21 | 65.71488 | 131.98812 | 34852 ft | 503 kts | 192° |
| 2026-04-30 06:21 | 65.64692 | 131.94341 | 34866 ft | 502 kts | 192° |
| 2026-04-30 06:22 | 65.57989 | 131.89960 | 34863 ft | 502 kts | 192° |
| 2026-04-30 06:22 | 65.51256 | 131.85547 | 34865 ft | 501 kts | 192° |
| 2026-04-30 06:23 | 65.44524 | 131.81146 | 34879 ft | 501 kts | 192° |
| 2026-04-30 06:23 | 65.37795 | 131.76772 | 34868 ft | 500 kts | 192° |
| 2026-04-30 06:24 | 65.31079 | 131.72431 | 34876 ft | 500 kts | 192° |
| 2026-04-30 06:24 | 65.24374 | 131.68009 | 34874 ft | 500 kts | 193° |
| 2026-04-30 06:25 | 65.17720 | 131.63499 | 34877 ft | 500 kts | 193° |
| 2026-04-30 06:25 | 65.11022 | 131.58976 | 34881 ft | 499 kts | 193° |
| 2026-04-30 06:26 | 65.04334 | 131.54508 | 34876 ft | 499 kts | 193° |
| 2026-04-30 06:26 | 64.97644 | 131.50076 | 34875 ft | 499 kts | 193° |
| 2026-04-30 06:27 | 64.90960 | 131.45669 | 34873 ft | 498 kts | 193° |
| 2026-04-30 06:27 | 64.84271 | 131.41282 | 34875 ft | 498 kts | 192° |
| 2026-04-30 06:28 | 64.77633 | 131.36951 | 34882 ft | 498 kts | 192° |
| 2026-04-30 06:28 | 64.70955 | 131.32616 | 34870 ft | 498 kts | 192° |
| 2026-04-30 06:29 | 64.64266 | 131.28297 | 34871 ft | 498 kts | 192° |
| 2026-04-30 06:29 | 64.57582 | 131.24002 | 34876 ft | 498 kts | 192° |
| 2026-04-30 06:30 | 64.50887 | 131.19719 | 34858 ft | 498 kts | 193° |
| 2026-04-30 06:30 | 64.44189 | 131.15460 | 34866 ft | 498 kts | 193° |
| 2026-04-30 06:31 | 64.37541 | 131.11253 | 34849 ft | 498 kts | 193° |
| 2026-04-30 06:31 | 64.30850 | 131.07037 | 34833 ft | 497 kts | 193° |
| 2026-04-30 06:32 | 64.24169 | 131.02851 | 34827 ft | 497 kts | 193° |
| 2026-04-30 06:32 | 64.17566 | 130.98735 | 34828 ft | 497 kts | 193° |
| 2026-04-30 06:33 | 64.10935 | 130.94620 | 34817 ft | 496 kts | 193° |
| 2026-04-30 06:33 | 64.04256 | 130.90498 | 34818 ft | 496 kts | 193° |
| 2026-04-30 06:34 | 63.97601 | 130.86409 | 34810 ft | 496 kts | 193° |
| 2026-04-30 06:34 | 63.90935 | 130.82335 | 34828 ft | 495 kts | 193° |
| 2026-04-30 06:35 | 63.84274 | 130.78285 | 34809 ft | 495 kts | 193° |
| 2026-04-30 06:35 | 63.77610 | 130.74251 | 34807 ft | 495 kts | 193° |
| 2026-04-30 06:36 | 63.70951 | 130.70241 | 34807 ft | 495 kts | 193° |
| 2026-04-30 06:36 | 63.64332 | 130.66273 | 34805 ft | 495 kts | 193° |
| 2026-04-30 06:37 | 63.57664 | 130.62295 | 34805 ft | 495 kts | 193° |
| 2026-04-30 06:37 | 63.51004 | 130.58341 | 34802 ft | 495 kts | 193° |
| 2026-04-30 06:38 | 63.44343 | 130.54406 | 34806 ft | 495 kts | 193° |
| 2026-04-30 06:38 | 63.37678 | 130.50489 | 34805 ft | 495 kts | 194° |
| 2026-04-30 06:39 | 63.31013 | 130.46589 | 34799 ft | 495 kts | 194° |
| 2026-04-30 06:39 | 63.24396 | 130.42735 | 34800 ft | 494 kts | 193° |
| 2026-04-30 06:40 | 63.17728 | 130.38870 | 34799 ft | 494 kts | 193° |
| 2026-04-30 06:40 | 63.11075 | 130.35033 | 34798 ft | 494 kts | 193° |
| 2026-04-30 06:41 | 63.04404 | 130.31204 | 34794 ft | 494 kts | 194° |
| 2026-04-30 06:41 | 62.97753 | 130.27403 | 34791 ft | 494 kts | 193° |
| 2026-04-30 06:42 | 62.91084 | 130.23610 | 34794 ft | 494 kts | 193° |
| 2026-04-30 06:42 | 62.84437 | 130.19848 | 34962 ft | 498 kts | 193° |
| 2026-04-30 06:42 | 62.81086 | 130.17958 | 35297 ft | 496 kts | 193° |
| 2026-04-30 06:43 | 62.77753 | 130.16082 | 35669 ft | 494 kts | 193° |
| 2026-04-30 06:43 | 62.74426 | 130.14213 | 36029 ft | 493 kts | 194° |
| 2026-04-30 06:43 | 62.71105 | 130.12353 | 36353 ft | 492 kts | 194° |
| 2026-04-30 06:43 | 62.67793 | 130.10503 | 36618 ft | 492 kts | 194° |
| 2026-04-30 06:44 | 62.64467 | 130.08648 | 36712 ft | 495 kts | 194° |
| 2026-04-30 06:44 | 62.57769 | 130.04927 | 36774 ft | 496 kts | 194° |
| 2026-04-30 06:45 | 62.51099 | 130.01238 | 36773 ft | 492 kts | 194° |
| 2026-04-30 06:45 | 62.44535 | 129.97625 | 36782 ft | 490 kts | 194° |
| 2026-04-30 06:46 | 62.37935 | 129.94008 | 36775 ft | 489 kts | 194° |
| 2026-04-30 06:46 | 62.31379 | 129.90432 | 36774 ft | 489 kts | 194° |
| 2026-04-30 06:47 | 62.24781 | 129.86847 | 36779 ft | 489 kts | 194° |
| 2026-04-30 06:47 | 62.18174 | 129.83273 | 36778 ft | 490 kts | 194° |
| 2026-04-30 06:48 | 62.11592 | 129.79356 | 36764 ft | 491 kts | 200° |
| 2026-04-30 06:48 | 62.05412 | 129.73101 | 36781 ft | 492 kts | 211° |
| 2026-04-30 06:49 | 61.99698 | 129.65049 | 36783 ft | 493 kts | 214° |
| 2026-04-30 06:49 | 61.94045 | 129.56925 | 36779 ft | 494 kts | 214° |
| 2026-04-30 06:50 | 61.88319 | 129.48801 | 36777 ft | 495 kts | 214° |
| 2026-04-30 06:50 | 61.82565 | 129.40726 | 36767 ft | 496 kts | 214° |
| 2026-04-30 06:51 | 61.76795 | 129.32680 | 36770 ft | 495 kts | 214° |
| 2026-04-30 06:51 | 61.71045 | 129.24698 | 36759 ft | 495 kts | 214° |
| 2026-04-30 06:52 | 61.65290 | 129.16742 | 36761 ft | 494 kts | 214° |
| 2026-04-30 06:52 | 61.59576 | 129.08877 | 36766 ft | 493 kts | 214° |
| 2026-04-30 06:53 | 61.53835 | 129.01010 | 36769 ft | 492 kts | 214° |
| 2026-04-30 06:53 | 61.48161 | 128.93270 | 36761 ft | 491 kts | 214° |
| 2026-04-30 06:54 | 61.42432 | 128.85487 | 36766 ft | 490 kts | 213° |
| 2026-04-30 06:54 | 61.36745 | 128.77797 | 36766 ft | 489 kts | 213° |
| 2026-04-30 06:55 | 61.31030 | 128.70105 | 36765 ft | 489 kts | 213° |
| 2026-04-30 06:55 | 61.25308 | 128.62436 | 36774 ft | 488 kts | 213° |
| 2026-04-30 06:56 | 61.19592 | 128.54807 | 36774 ft | 489 kts | 213° |
| 2026-04-30 06:56 | 61.14833 | 128.48481 | 36776 ft | 489 kts | 213° |
| 2026-04-30 06:57 | 61.09097 | 128.40889 | 36780 ft | 489 kts | 213° |
| 2026-04-30 06:57 | 61.02428 | 128.32102 | 36782 ft | 489 kts | 213° |
| 2026-04-30 06:58 | 60.97623 | 128.25798 | 36785 ft | 489 kts | 213° |
| 2026-04-30 06:58 | 60.91914 | 128.18338 | 36786 ft | 489 kts | 213° |
| 2026-04-30 06:59 | 60.86158 | 128.10850 | 36782 ft | 489 kts | 213° |
| 2026-04-30 06:59 | 60.80400 | 128.03391 | 36782 ft | 489 kts | 213° |
| 2026-04-30 07:00 | 60.74704 | 127.96044 | 36788 ft | 489 kts | 213° |
| 2026-04-30 07:00 | 60.68985 | 127.88698 | 36799 ft | 488 kts | 213° |
| 2026-04-30 07:01 | 60.63214 | 127.81317 | 36801 ft | 489 kts | 213° |
| 2026-04-30 07:01 | 60.57444 | 127.73970 | 36798 ft | 489 kts | 213° |
| 2026-04-30 07:02 | 60.51679 | 127.66659 | 36800 ft | 488 kts | 213° |
| 2026-04-30 07:02 | 60.45908 | 127.59373 | 36814 ft | 488 kts | 213° |
| 2026-04-30 07:03 | 60.40140 | 127.52121 | 36812 ft | 488 kts | 213° |
| 2026-04-30 07:03 | 60.34410 | 127.44946 | 36820 ft | 487 kts | 213° |
| 2026-04-30 07:04 | 60.28639 | 127.37751 | 36816 ft | 487 kts | 213° |
| 2026-04-30 07:04 | 60.22862 | 127.30578 | 36815 ft | 487 kts | 213° |
| 2026-04-30 07:05 | 60.14209 | 127.19890 | 36820 ft | 487 kts | 213° |
| 2026-04-30 07:05 | 60.08429 | 127.12788 | 36824 ft | 486 kts | 213° |
| 2026-04-30 07:06 | 60.02656 | 127.05725 | 36825 ft | 486 kts | 213° |
| 2026-04-30 07:06 | 59.96973 | 126.98798 | 36820 ft | 486 kts | 212° |
| 2026-04-30 07:07 | 59.91196 | 126.91786 | 36817 ft | 486 kts | 212° |
| 2026-04-30 07:07 | 59.85412 | 126.84791 | 36818 ft | 486 kts | 212° |
| 2026-04-30 07:08 | 59.79626 | 126.77816 | 36818 ft | 486 kts | 212° |
| 2026-04-30 07:08 | 59.73843 | 126.70834 | 36823 ft | 486 kts | 213° |
| 2026-04-30 07:09 | 59.68098 | 126.63918 | 36814 ft | 486 kts | 212° |
| 2026-04-30 07:09 | 59.62313 | 126.56986 | 36817 ft | 486 kts | 212° |
| 2026-04-30 07:10 | 59.56523 | 126.50077 | 36812 ft | 486 kts | 212° |
| 2026-04-30 07:10 | 59.50730 | 126.43192 | 36800 ft | 486 kts | 212° |
| 2026-04-30 07:11 | 59.44930 | 126.36344 | 36810 ft | 486 kts | 212° |
| 2026-04-30 07:11 | 59.39100 | 126.29558 | 36808 ft | 486 kts | 212° |
| 2026-04-30 07:12 | 59.33270 | 126.22806 | 36800 ft | 486 kts | 212° |
| 2026-04-30 07:12 | 59.27437 | 126.16067 | 36801 ft | 486 kts | 212° |
| 2026-04-30 07:13 | 59.21641 | 126.09392 | 36801 ft | 486 kts | 212° |
| 2026-04-30 07:13 | 59.15811 | 126.02702 | 36796 ft | 486 kts | 212° |
| 2026-04-30 07:14 | 59.10026 | 125.96092 | 36801 ft | 486 kts | 212° |
| 2026-04-30 07:14 | 59.04181 | 125.89440 | 36800 ft | 486 kts | 212° |
| 2026-04-30 07:15 | 58.98335 | 125.82812 | 36807 ft | 486 kts | 212° |
| 2026-04-30 07:15 | 58.92529 | 125.76257 | 36805 ft | 486 kts | 212° |
| 2026-04-30 07:16 | 58.86683 | 125.69682 | 36801 ft | 486 kts | 212° |
| 2026-04-30 07:16 | 58.80825 | 125.63120 | 36806 ft | 486 kts | 212° |
| 2026-04-30 07:17 | 58.74958 | 125.56572 | 36799 ft | 486 kts | 212° |
| 2026-04-30 07:18 | 58.66174 | 125.46815 | 36814 ft | 486 kts | 212° |
| 2026-04-30 07:18 | 58.60317 | 125.40317 | 36810 ft | 485 kts | 213° |
| 2026-04-30 07:19 | 58.54794 | 125.33074 | 36827 ft | 484 kts | 217° |
| 2026-04-30 07:19 | 58.49297 | 125.25589 | 36811 ft | 484 kts | 217° |
| 2026-04-30 07:20 | 58.43789 | 125.18171 | 36826 ft | 484 kts | 217° |
| 2026-04-30 07:20 | 58.38258 | 125.10790 | 36822 ft | 484 kts | 217° |
| 2026-04-30 07:21 | 58.32765 | 125.03491 | 36832 ft | 484 kts | 217° |
| 2026-04-30 07:21 | 58.27284 | 124.96229 | 36824 ft | 484 kts | 217° |
| 2026-04-30 07:22 | 58.18972 | 124.85292 | 36839 ft | 484 kts | 216° |
| 2026-04-30 07:22 | 58.13422 | 124.78049 | 36844 ft | 484 kts | 216° |
| 2026-04-30 07:23 | 58.07869 | 124.70826 | 36846 ft | 484 kts | 216° |
| 2026-04-30 07:23 | 58.02347 | 124.63666 | 36829 ft | 484 kts | 216° |
| 2026-04-30 07:24 | 57.96793 | 124.56491 | 36852 ft | 484 kts | 216° |
| 2026-04-30 07:24 | 57.91237 | 124.49341 | 36852 ft | 484 kts | 216° |
| 2026-04-30 07:25 | 57.85664 | 124.42195 | 36846 ft | 484 kts | 216° |
| 2026-04-30 07:25 | 57.80129 | 124.35126 | 36845 ft | 484 kts | 216° |
| 2026-04-30 07:26 | 57.74553 | 124.28031 | 36847 ft | 484 kts | 216° |
| 2026-04-30 07:26 | 57.68973 | 124.20957 | 36835 ft | 484 kts | 216° |
| 2026-04-30 07:27 | 57.63385 | 124.13901 | 36839 ft | 484 kts | 216° |
| 2026-04-30 07:27 | 57.57797 | 124.06869 | 36829 ft | 484 kts | 216° |
| 2026-04-30 07:28 | 57.52232 | 123.99890 | 36824 ft | 484 kts | 216° |
| 2026-04-30 07:28 | 57.46656 | 123.92927 | 36821 ft | 484 kts | 216° |
| 2026-04-30 07:29 | 57.41059 | 123.85960 | 36824 ft | 484 kts | 216° |
| 2026-04-30 07:29 | 57.35499 | 123.79059 | 36824 ft | 484 kts | 216° |
| 2026-04-30 07:30 | 57.27103 | 123.68683 | 36823 ft | 483 kts | 216° |
| 2026-04-30 07:31 | 57.21501 | 123.61790 | 36827 ft | 483 kts | 216° |
| 2026-04-30 07:31 | 57.15894 | 123.54916 | 36824 ft | 483 kts | 215° |
| 2026-04-30 07:32 | 57.10285 | 123.48086 | 36828 ft | 483 kts | 215° |
| 2026-04-30 07:32 | 57.04696 | 123.41311 | 36825 ft | 483 kts | 215° |
| 2026-04-30 07:33 | 56.99074 | 123.34516 | 36837 ft | 484 kts | 215° |
| 2026-04-30 07:33 | 56.93441 | 123.27729 | 36840 ft | 484 kts | 215° |
| 2026-04-30 07:34 | 56.87805 | 123.20962 | 36831 ft | 484 kts | 215° |
| 2026-04-30 07:34 | 56.82158 | 123.14206 | 36828 ft | 484 kts | 215° |
| 2026-04-30 07:35 | 56.76554 | 123.07513 | 36833 ft | 484 kts | 215° |
| 2026-04-30 07:35 | 56.70920 | 123.00789 | 36839 ft | 484 kts | 215° |
| 2026-04-30 07:36 | 56.65329 | 122.94136 | 36837 ft | 484 kts | 215° |
| 2026-04-30 07:36 | 56.59680 | 122.87437 | 36827 ft | 484 kts | 215° |
| 2026-04-30 07:37 | 56.54044 | 122.80755 | 36834 ft | 484 kts | 215° |
| 2026-04-30 07:37 | 56.48433 | 122.74179 | 36840 ft | 484 kts | 215° |
| 2026-04-30 07:38 | 56.42772 | 122.67584 | 36833 ft | 484 kts | 215° |
| 2026-04-30 07:38 | 56.37091 | 122.60983 | 36819 ft | 484 kts | 215° |
| 2026-04-30 07:39 | 56.31421 | 122.54413 | 36829 ft | 484 kts | 215° |
| 2026-04-30 07:39 | 56.25791 | 122.47908 | 36836 ft | 484 kts | 215° |
| 2026-04-30 07:40 | 56.20119 | 122.41380 | 36835 ft | 484 kts | 215° |
| 2026-04-30 07:40 | 56.14445 | 122.34873 | 36817 ft | 484 kts | 215° |
| 2026-04-30 07:41 | 56.08760 | 122.28377 | 36842 ft | 484 kts | 215° |
| 2026-04-30 07:41 | 56.03080 | 122.21910 | 36841 ft | 484 kts | 215° |
| 2026-04-30 07:42 | 55.97394 | 122.15458 | 36842 ft | 484 kts | 215° |
| 2026-04-30 07:42 | 55.91731 | 122.09055 | 36843 ft | 485 kts | 214° |
| 2026-04-30 07:43 | 55.86030 | 122.02631 | 36843 ft | 485 kts | 215° |
| 2026-04-30 07:43 | 55.80376 | 121.96282 | 36842 ft | 485 kts | 214° |
| 2026-04-30 07:44 | 55.74666 | 121.89889 | 36846 ft | 485 kts | 214° |
| 2026-04-30 07:44 | 55.68950 | 121.83505 | 36837 ft | 486 kts | 215° |
| 2026-04-30 07:45 | 55.64203 | 121.78191 | 36830 ft | 485 kts | 215° |
| 2026-04-30 07:45 | 55.57556 | 121.70764 | 36834 ft | 485 kts | 215° |
| 2026-04-30 07:46 | 55.51840 | 121.64406 | 36830 ft | 485 kts | 215° |
| 2026-04-30 07:46 | 55.47053 | 121.59099 | 36831 ft | 485 kts | 214° |
| 2026-04-30 07:47 | 55.41367 | 121.52827 | 36821 ft | 485 kts | 214° |
| 2026-04-30 07:47 | 55.35642 | 121.46547 | 36823 ft | 484 kts | 214° |
| 2026-04-30 07:48 | 55.29915 | 121.40284 | 36823 ft | 484 kts | 214° |
| 2026-04-30 07:48 | 55.24191 | 121.34041 | 36822 ft | 484 kts | 214° |
| 2026-04-30 07:49 | 55.18465 | 121.27817 | 36823 ft | 484 kts | 214° |
| 2026-04-30 07:49 | 55.12750 | 121.21626 | 36820 ft | 484 kts | 214° |
| 2026-04-30 07:50 | 55.07015 | 121.15434 | 36821 ft | 484 kts | 214° |
| 2026-04-30 07:50 | 55.01290 | 121.09275 | 36823 ft | 485 kts | 214° |
| 2026-04-30 07:51 | 54.95547 | 121.03117 | 36823 ft | 484 kts | 214° |
| 2026-04-30 07:51 | 54.89852 | 120.97031 | 36819 ft | 484 kts | 214° |
| 2026-04-30 07:52 | 54.84119 | 120.90924 | 36830 ft | 484 kts | 214° |
| 2026-04-30 07:52 | 54.78401 | 120.84854 | 36825 ft | 484 kts | 214° |
| 2026-04-30 07:53 | 54.72657 | 120.78777 | 36817 ft | 483 kts | 214° |
| 2026-04-30 07:53 | 54.66930 | 120.72734 | 36825 ft | 483 kts | 214° |
| 2026-04-30 07:54 | 54.61206 | 120.66714 | 36818 ft | 483 kts | 214° |
| 2026-04-30 07:54 | 54.55487 | 120.60671 | 36819 ft | 482 kts | 214° |
| 2026-04-30 07:55 | 54.49770 | 120.54632 | 36807 ft | 483 kts | 214° |
| 2026-04-30 07:55 | 54.44027 | 120.48590 | 36809 ft | 483 kts | 214° |
| 2026-04-30 07:56 | 54.38297 | 120.42584 | 36812 ft | 483 kts | 214° |
| 2026-04-30 07:56 | 54.32555 | 120.36588 | 36810 ft | 483 kts | 214° |
| 2026-04-30 07:57 | 54.26817 | 120.30616 | 36804 ft | 483 kts | 214° |
| 2026-04-30 07:57 | 54.21095 | 120.24680 | 36815 ft | 483 kts | 214° |
| 2026-04-30 07:58 | 54.15351 | 120.18740 | 36815 ft | 483 kts | 214° |
| 2026-04-30 07:58 | 54.09581 | 120.12792 | 36811 ft | 484 kts | 214° |
| 2026-04-30 07:59 | 54.03830 | 120.06885 | 36797 ft | 484 kts | 214° |
| 2026-04-30 07:59 | 53.98078 | 120.00995 | 36817 ft | 484 kts | 214° |
| 2026-04-30 08:00 | 53.89480 | 119.92225 | 36823 ft | 485 kts | 214° |
| 2026-04-30 08:00 | 53.83668 | 119.86321 | 36814 ft | 485 kts | 214° |
| 2026-04-30 08:01 | 53.77872 | 119.80452 | 36832 ft | 486 kts | 214° |
| 2026-04-30 08:01 | 53.72098 | 119.74623 | 36820 ft | 486 kts | 214° |
| 2026-04-30 08:02 | 53.62871 | 119.67313 | 36839 ft | 490 kts | 203° |
| 2026-04-30 08:03 | 53.50056 | 119.59526 | 36835 ft | 490 kts | 203° |
| 2026-04-30 08:04 | 53.43668 | 119.55593 | 36836 ft | 490 kts | 203° |
| 2026-04-30 08:04 | 53.37266 | 119.51643 | 36817 ft | 490 kts | 203° |
| 2026-04-30 08:05 | 53.30868 | 119.47706 | 36840 ft | 490 kts | 203° |
| 2026-04-30 08:05 | 53.24468 | 119.43784 | 36842 ft | 490 kts | 203° |
| 2026-04-30 08:06 | 53.18068 | 119.39876 | 36854 ft | 490 kts | 203° |
| 2026-04-30 08:06 | 53.11655 | 119.35973 | 36841 ft | 490 kts | 203° |
| 2026-04-30 08:07 | 53.05289 | 119.32110 | 36845 ft | 489 kts | 203° |
| 2026-04-30 08:07 | 52.98889 | 119.28239 | 36857 ft | 489 kts | 203° |
| 2026-04-30 08:08 | 52.92485 | 119.24378 | 36861 ft | 490 kts | 203° |
| 2026-04-30 08:08 | 52.86067 | 119.20521 | 36858 ft | 490 kts | 203° |
| 2026-04-30 08:09 | 52.79657 | 119.16680 | 36863 ft | 490 kts | 203° |
| 2026-04-30 08:09 | 52.73250 | 119.12853 | 36861 ft | 490 kts | 203° |
| 2026-04-30 08:10 | 52.66836 | 119.09034 | 36856 ft | 490 kts | 203° |
| 2026-04-30 08:10 | 52.60461 | 119.05251 | 36859 ft | 490 kts | 203° |
| 2026-04-30 08:11 | 52.54045 | 119.01454 | 36864 ft | 490 kts | 203° |
| 2026-04-30 08:11 | 52.47698 | 118.97710 | 36866 ft | 490 kts | 203° |
| 2026-04-30 08:12 | 52.41283 | 118.93937 | 36852 ft | 490 kts | 203° |
| 2026-04-30 08:12 | 52.34868 | 118.90177 | 36866 ft | 489 kts | 203° |
| 2026-04-30 08:13 | 52.28454 | 118.86428 | 36877 ft | 489 kts | 203° |
| 2026-04-30 08:13 | 52.22042 | 118.82691 | 36873 ft | 488 kts | 203° |
| 2026-04-30 08:14 | 52.15636 | 118.78971 | 36873 ft | 487 kts | 203° |
| 2026-04-30 08:14 | 52.09283 | 118.75290 | 36866 ft | 487 kts | 203° |
| 2026-04-30 08:15 | 52.02899 | 118.71602 | 36880 ft | 486 kts | 203° |
| 2026-04-30 08:15 | 51.96526 | 118.67921 | 36869 ft | 485 kts | 204° |
| 2026-04-30 08:16 | 51.90203 | 118.64226 | 36876 ft | 484 kts | 204° |
| 2026-04-30 08:16 | 51.83864 | 118.60523 | 36882 ft | 485 kts | 204° |
| 2026-04-30 08:17 | 51.77533 | 118.56841 | 36876 ft | 485 kts | 204° |
| 2026-04-30 08:17 | 51.71143 | 118.53141 | 36864 ft | 485 kts | 204° |
| 2026-04-30 08:18 | 51.64807 | 118.49484 | 36885 ft | 485 kts | 204° |
| 2026-04-30 08:18 | 51.58446 | 118.45821 | 36889 ft | 485 kts | 204° |
| 2026-04-30 08:19 | 51.52104 | 118.42179 | 36901 ft | 486 kts | 204° |
| 2026-04-30 08:19 | 51.45901 | 118.38013 | 36891 ft | 476 kts | 216° |
| 2026-04-30 08:20 | 51.40785 | 118.31580 | 36896 ft | 466 kts | 231° |
| 2026-04-30 08:20 | 51.36602 | 118.23722 | 36901 ft | 463 kts | 234° |
| 2026-04-30 08:21 | 51.32470 | 118.15800 | 36902 ft | 464 kts | 234° |
| 2026-04-30 08:21 | 51.28298 | 118.07914 | 36886 ft | 464 kts | 234° |
| 2026-04-30 08:22 | 51.24111 | 118.00084 | 36892 ft | 463 kts | 234° |
| 2026-04-30 08:22 | 51.19947 | 117.92338 | 36913 ft | 463 kts | 234° |
| 2026-04-30 08:23 | 51.15744 | 117.84543 | 36909 ft | 464 kts | 233° |
| 2026-04-30 08:23 | 51.11533 | 117.76754 | 36880 ft | 464 kts | 234° |
| 2026-04-30 08:24 | 51.07345 | 117.69031 | 36904 ft | 463 kts | 234° |
| 2026-04-30 08:24 | 51.03126 | 117.61272 | 36907 ft | 464 kts | 234° |
| 2026-04-30 08:25 | 50.98901 | 117.53525 | 36913 ft | 464 kts | 233° |
| 2026-04-30 08:25 | 50.94671 | 117.45795 | 36907 ft | 464 kts | 233° |
| 2026-04-30 08:26 | 50.90442 | 117.38090 | 36912 ft | 463 kts | 233° |
| 2026-04-30 08:26 | 50.86231 | 117.30439 | 36919 ft | 463 kts | 233° |
| 2026-04-30 08:27 | 50.81987 | 117.22753 | 36924 ft | 464 kts | 233° |
| 2026-04-30 08:27 | 50.77737 | 117.15077 | 36927 ft | 465 kts | 233° |
| 2026-04-30 08:28 | 50.73444 | 117.07347 | 36922 ft | 466 kts | 233° |
| 2026-04-30 08:28 | 50.69194 | 116.99719 | 36930 ft | 467 kts | 233° |
| 2026-04-30 08:29 | 50.64905 | 116.92043 | 36929 ft | 467 kts | 233° |
| 2026-04-30 08:29 | 50.60612 | 116.84382 | 36930 ft | 468 kts | 233° |
| 2026-04-30 08:30 | 50.56299 | 116.76710 | 36934 ft | 467 kts | 233° |
| 2026-04-30 08:30 | 50.51980 | 116.69049 | 36936 ft | 467 kts | 233° |
| 2026-04-30 08:31 | 50.47661 | 116.61410 | 36936 ft | 467 kts | 233° |
| 2026-04-30 08:31 | 50.43369 | 116.53839 | 36938 ft | 467 kts | 233° |
| 2026-04-30 08:32 | 50.39050 | 116.46247 | 36939 ft | 465 kts | 232° |
| 2026-04-30 08:32 | 50.34390 | 116.39134 | 36943 ft | 467 kts | 227° |
| 2026-04-30 08:33 | 50.29623 | 116.32261 | 36943 ft | 465 kts | 227° |
| 2026-04-30 08:33 | 50.24906 | 116.25404 | 36950 ft | 464 kts | 227° |
| 2026-04-30 08:34 | 50.20962 | 116.19668 | 36941 ft | 463 kts | 227° |
| 2026-04-30 08:34 | 50.16251 | 116.12827 | 36951 ft | 462 kts | 227° |
| 2026-04-30 08:35 | 50.11532 | 116.05985 | 36962 ft | 462 kts | 227° |
| 2026-04-30 08:35 | 50.06891 | 115.99272 | 36966 ft | 462 kts | 227° |
| 2026-04-30 08:36 | 50.02168 | 115.92461 | 36952 ft | 462 kts | 227° |
| 2026-04-30 08:36 | 49.97461 | 115.85691 | 36967 ft | 462 kts | 227° |
| 2026-04-30 08:37 | 49.92698 | 115.78997 | 36972 ft | 466 kts | 223° |
| 2026-04-30 08:37 | 49.87116 | 115.73626 | 36980 ft | 475 kts | 211° |
| 2026-04-30 08:38 | 49.80924 | 115.69915 | 36975 ft | 480 kts | 204° |
| 2026-04-30 08:38 | 49.74560 | 115.66590 | 36986 ft | 481 kts | 204° |
| 2026-04-30 08:39 | 49.68225 | 115.63262 | 36979 ft | 481 kts | 205° |
| 2026-04-30 08:39 | 49.61897 | 115.59890 | 36950 ft | 481 kts | 205° |
| 2026-04-30 08:40 | 49.55575 | 115.56508 | 36979 ft | 481 kts | 205° |
| 2026-04-30 08:40 | 49.49262 | 115.53136 | 36983 ft | 481 kts | 205° |
| 2026-04-30 08:41 | 49.42950 | 115.49778 | 36975 ft | 481 kts | 205° |
| 2026-04-30 08:41 | 49.36609 | 115.46415 | 36980 ft | 481 kts | 205° |
| 2026-04-30 08:42 | 49.30272 | 115.43064 | 36982 ft | 481 kts | 205° |
| 2026-04-30 08:42 | 49.23954 | 115.39731 | 36985 ft | 481 kts | 205° |
| 2026-04-30 08:43 | 49.17629 | 115.36404 | 36971 ft | 480 kts | 205° |
| 2026-04-30 08:43 | 49.11324 | 115.33096 | 36994 ft | 480 kts | 205° |
| 2026-04-30 08:44 | 49.05022 | 115.29799 | 36990 ft | 480 kts | 205° |
| 2026-04-30 08:44 | 48.98681 | 115.26490 | 36990 ft | 480 kts | 205° |
| 2026-04-30 08:45 | 48.92371 | 115.23206 | 36982 ft | 479 kts | 205° |
| 2026-04-30 08:45 | 48.86080 | 115.19941 | 36990 ft | 479 kts | 205° |
| 2026-04-30 08:46 | 48.79768 | 115.16674 | 36998 ft | 479 kts | 205° |
| 2026-04-30 08:46 | 48.73450 | 115.13412 | 36997 ft | 479 kts | 205° |
| 2026-04-30 08:47 | 48.67142 | 115.10163 | 36999 ft | 479 kts | 205° |
| 2026-04-30 08:47 | 48.60858 | 115.06936 | 36993 ft | 479 kts | 205° |
| 2026-04-30 08:48 | 48.54524 | 115.03692 | 36973 ft | 479 kts | 205° |
| 2026-04-30 08:48 | 48.48191 | 115.00457 | 36992 ft | 479 kts | 205° |
| 2026-04-30 08:49 | 48.41958 | 114.97281 | 36999 ft | 479 kts | 204° |
| 2026-04-30 08:49 | 48.35657 | 114.94078 | 37003 ft | 479 kts | 204° |
| 2026-04-30 08:50 | 48.29345 | 114.90879 | 37001 ft | 479 kts | 205° |
| 2026-04-30 08:50 | 48.23018 | 114.87678 | 37004 ft | 478 kts | 205° |
| 2026-04-30 08:51 | 48.16723 | 114.84505 | 37001 ft | 479 kts | 205° |
| 2026-04-30 08:51 | 48.10394 | 114.81327 | 37003 ft | 478 kts | 205° |
| 2026-04-30 08:52 | 48.04107 | 114.78178 | 37002 ft | 477 kts | 205° |
| 2026-04-30 08:52 | 47.97812 | 114.75030 | 37010 ft | 477 kts | 205° |
| 2026-04-30 08:53 | 47.91509 | 114.71886 | 36989 ft | 477 kts | 205° |
| 2026-04-30 08:53 | 47.85232 | 114.68763 | 37008 ft | 476 kts | 205° |
| 2026-04-30 08:54 | 47.78942 | 114.65642 | 37019 ft | 476 kts | 205° |
| 2026-04-30 08:54 | 47.72644 | 114.62524 | 37012 ft | 476 kts | 205° |
| 2026-04-30 08:55 | 47.66389 | 114.59437 | 37015 ft | 475 kts | 205° |
| 2026-04-30 08:55 | 47.60082 | 114.56331 | 37023 ft | 475 kts | 205° |
| 2026-04-30 08:56 | 47.53817 | 114.53253 | 37022 ft | 475 kts | 205° |
| 2026-04-30 08:56 | 47.47562 | 114.50188 | 37016 ft | 474 kts | 205° |
| 2026-04-30 08:57 | 47.41294 | 114.47125 | 37024 ft | 473 kts | 205° |
| 2026-04-30 08:57 | 47.35052 | 114.44082 | 37022 ft | 473 kts | 205° |
| 2026-04-30 08:58 | 47.28814 | 114.41048 | 37002 ft | 473 kts | 205° |
| 2026-04-30 08:58 | 47.22571 | 114.38019 | 37015 ft | 472 kts | 205° |
| 2026-04-30 08:59 | 47.16330 | 114.34999 | 37021 ft | 472 kts | 205° |
| 2026-04-30 08:59 | 47.10097 | 114.31990 | 36989 ft | 472 kts | 205° |
| 2026-04-30 09:00 | 47.03835 | 114.28974 | 37021 ft | 471 kts | 205° |
| 2026-04-30 09:00 | 46.97637 | 114.25997 | 37030 ft | 471 kts | 205° |
| 2026-04-30 09:01 | 46.91403 | 114.23010 | 37029 ft | 471 kts | 205° |
| 2026-04-30 09:01 | 46.85160 | 114.20025 | 37026 ft | 471 kts | 205° |
| 2026-04-30 09:02 | 46.75834 | 114.15579 | 37021 ft | 471 kts | 205° |
| 2026-04-30 09:02 | 46.69578 | 114.12606 | 37027 ft | 471 kts | 205° |
| 2026-04-30 09:03 | 46.63361 | 114.09661 | 37024 ft | 471 kts | 205° |
| 2026-04-30 09:03 | 46.57147 | 114.06722 | 37030 ft | 471 kts | 205° |
| 2026-04-30 09:04 | 46.50885 | 114.03767 | 37023 ft | 471 kts | 205° |
| 2026-04-30 09:04 | 46.44641 | 114.00826 | 37013 ft | 471 kts | 204° |
| 2026-04-30 09:05 | 46.38470 | 113.97928 | 37023 ft | 471 kts | 204° |
| 2026-04-30 09:05 | 46.32255 | 113.95015 | 37026 ft | 471 kts | 204° |
| 2026-04-30 09:06 | 46.25994 | 113.92087 | 37019 ft | 471 kts | 204° |
| 2026-04-30 09:06 | 46.19759 | 113.89180 | 37028 ft | 472 kts | 204° |
| 2026-04-30 09:07 | 46.13512 | 113.86272 | 37028 ft | 472 kts | 204° |
| 2026-04-30 09:07 | 46.07261 | 113.83371 | 37016 ft | 473 kts | 204° |
| 2026-04-30 09:08 | 46.00988 | 113.80466 | 37023 ft | 474 kts | 204° |
| 2026-04-30 09:08 | 45.94741 | 113.77580 | 37022 ft | 475 kts | 204° |
| 2026-04-30 09:09 | 45.88434 | 113.74673 | 37001 ft | 475 kts | 204° |
| 2026-04-30 09:09 | 45.82132 | 113.71776 | 37014 ft | 476 kts | 204° |
| 2026-04-30 09:10 | 45.75796 | 113.68869 | 37014 ft | 477 kts | 204° |
| 2026-04-30 09:10 | 45.69451 | 113.65966 | 36993 ft | 478 kts | 204° |
| 2026-04-30 09:11 | 45.63122 | 113.63077 | 36999 ft | 478 kts | 204° |
| 2026-04-30 09:11 | 45.56790 | 113.60194 | 37007 ft | 478 kts | 204° |
| 2026-04-30 09:12 | 45.50453 | 113.57314 | 36981 ft | 479 kts | 204° |
| 2026-04-30 09:12 | 45.44134 | 113.54450 | 36990 ft | 479 kts | 204° |
| 2026-04-30 09:13 | 45.37789 | 113.51581 | 36989 ft | 479 kts | 204° |
| 2026-04-30 09:13 | 45.32495 | 113.49193 | 36964 ft | 479 kts | 204° |
| 2026-04-30 09:14 | 45.26156 | 113.46339 | 36984 ft | 478 kts | 204° |
| 2026-04-30 09:14 | 45.19796 | 113.43482 | 36977 ft | 478 kts | 204° |
| 2026-04-30 09:15 | 45.13470 | 113.40646 | 36957 ft | 478 kts | 204° |
| 2026-04-30 09:15 | 45.07129 | 113.37811 | 36967 ft | 477 kts | 204° |
| 2026-04-30 09:16 | 45.00825 | 113.34999 | 36968 ft | 476 kts | 204° |
| 2026-04-30 09:16 | 44.94517 | 113.32191 | 36930 ft | 476 kts | 204° |
| 2026-04-30 09:17 | 44.88188 | 113.29380 | 36961 ft | 475 kts | 204° |
| 2026-04-30 09:17 | 44.81910 | 113.26606 | 36957 ft | 475 kts | 202° |
| 2026-04-30 09:18 | 44.75336 | 113.24845 | 36955 ft | 485 kts | 191° |
| 2026-04-30 09:18 | 44.68543 | 113.24540 | 36954 ft | 489 kts | 187° |
| 2026-04-30 09:19 | 44.61748 | 113.24391 | 36945 ft | 489 kts | 187° |
| 2026-04-30 09:19 | 44.54932 | 113.24203 | 36916 ft | 489 kts | 187° |
| 2026-04-30 09:20 | 44.48150 | 113.23980 | 36926 ft | 489 kts | 187° |
| 2026-04-30 09:20 | 44.41342 | 113.23746 | 36918 ft | 490 kts | 187° |
| 2026-04-30 09:21 | 44.34520 | 113.23511 | 36891 ft | 491 kts | 187° |
| 2026-04-30 09:21 | 44.27670 | 113.23279 | 36901 ft | 491 kts | 187° |
| 2026-04-30 09:22 | 44.20844 | 113.23049 | 36884 ft | 491 kts | 187° |
| 2026-04-30 09:22 | 44.14032 | 113.22819 | 36854 ft | 491 kts | 187° |
| 2026-04-30 09:23 | 44.07220 | 113.22591 | 36884 ft | 491 kts | 187° |
| 2026-04-30 09:23 | 44.00346 | 113.22361 | 36867 ft | 491 kts | 187° |
| 2026-04-30 09:24 | 43.93546 | 113.22133 | 36844 ft | 491 kts | 187° |
| 2026-04-30 09:24 | 43.86728 | 113.21906 | 36860 ft | 491 kts | 187° |
| 2026-04-30 09:25 | 43.79909 | 113.21679 | 36858 ft | 491 kts | 187° |
| 2026-04-30 09:25 | 43.73080 | 113.21452 | 36835 ft | 491 kts | 187° |
| 2026-04-30 09:26 | 43.66218 | 113.21225 | 36855 ft | 491 kts | 187° |
| 2026-04-30 09:26 | 43.59390 | 113.20999 | 36854 ft | 492 kts | 187° |
| 2026-04-30 09:27 | 43.52542 | 113.20773 | 36838 ft | 492 kts | 187° |
| 2026-04-30 09:27 | 43.45692 | 113.20548 | 36852 ft | 493 kts | 187° |
| 2026-04-30 09:28 | 43.38825 | 113.20323 | 36850 ft | 493 kts | 187° |
| 2026-04-30 09:28 | 43.31950 | 113.20097 | 36840 ft | 494 kts | 187° |
| 2026-04-30 09:29 | 43.25078 | 113.19873 | 36846 ft | 494 kts | 187° |
| 2026-04-30 09:29 | 43.18189 | 113.19649 | 36845 ft | 495 kts | 187° |
| 2026-04-30 09:30 | 43.11324 | 113.19426 | 36836 ft | 495 kts | 187° |
| 2026-04-30 09:30 | 43.04422 | 113.19201 | 36850 ft | 495 kts | 187° |
| 2026-04-30 09:31 | 42.97563 | 113.18978 | 36832 ft | 495 kts | 187° |
| 2026-04-30 09:31 | 42.90662 | 113.18748 | 36841 ft | 495 kts | 187° |
| 2026-04-30 09:32 | 42.83763 | 113.18517 | 36839 ft | 495 kts | 187° |
| 2026-04-30 09:32 | 42.76863 | 113.18288 | 36834 ft | 496 kts | 187° |
| 2026-04-30 09:33 | 42.69976 | 113.18060 | 36838 ft | 495 kts | 187° |
| 2026-04-30 09:33 | 42.63102 | 113.17833 | 36839 ft | 495 kts | 187° |
| 2026-04-30 09:34 | 42.56181 | 113.17606 | 36830 ft | 495 kts | 187° |
| 2026-04-30 09:34 | 42.49296 | 113.17380 | 36847 ft | 495 kts | 187° |
| 2026-04-30 09:35 | 42.42430 | 113.17154 | 36856 ft | 496 kts | 187° |
| 2026-04-30 09:35 | 42.35535 | 113.16929 | 36851 ft | 496 kts | 187° |
| 2026-04-30 09:36 | 42.28611 | 113.16702 | 36865 ft | 496 kts | 187° |
| 2026-04-30 09:36 | 42.21726 | 113.16478 | 36871 ft | 497 kts | 187° |
| 2026-04-30 09:37 | 42.14791 | 113.16253 | 36865 ft | 498 kts | 187° |
| 2026-04-30 09:37 | 42.07849 | 113.16027 | 36877 ft | 500 kts | 187° |
| 2026-04-30 09:38 | 42.00865 | 113.15804 | 36870 ft | 501 kts | 187° |
| 2026-04-30 09:38 | 41.93894 | 113.15593 | 36881 ft | 502 kts | 187° |
| 2026-04-30 09:39 | 41.86889 | 113.15686 | 36882 ft | 509 kts | 178° |
| 2026-04-30 09:39 | 41.79932 | 113.17971 | 36882 ft | 520 kts | 162° |
| 2026-04-30 09:40 | 41.73373 | 113.22100 | 36889 ft | 523 kts | 157° |
| 2026-04-30 09:40 | 41.66853 | 113.26431 | 36886 ft | 523 kts | 157° |
| 2026-04-30 09:41 | 41.60298 | 113.30678 | 36882 ft | 523 kts | 158° |
| 2026-04-30 09:41 | 41.53744 | 113.34848 | 36879 ft | 523 kts | 158° |
| 2026-04-30 09:42 | 41.47183 | 113.39008 | 36878 ft | 523 kts | 158° |
| 2026-04-30 09:42 | 41.40599 | 113.43180 | 36891 ft | 524 kts | 158° |
| 2026-04-30 09:43 | 41.33969 | 113.47377 | 36873 ft | 524 kts | 158° |
| 2026-04-30 09:43 | 41.27402 | 113.51524 | 36874 ft | 525 kts | 158° |
| 2026-04-30 09:44 | 41.20803 | 113.55673 | 36873 ft | 525 kts | 158° |
| 2026-04-30 09:44 | 41.14194 | 113.59817 | 36868 ft | 525 kts | 158° |
| 2026-04-30 09:45 | 41.07546 | 113.63978 | 36875 ft | 525 kts | 158° |
| 2026-04-30 09:45 | 41.00912 | 113.68122 | 36876 ft | 526 kts | 158° |
| 2026-04-30 09:46 | 40.94321 | 113.72231 | 36883 ft | 527 kts | 158° |
| 2026-04-30 09:46 | 40.87672 | 113.76367 | 36886 ft | 528 kts | 157° |
| 2026-04-30 09:47 | 40.81025 | 113.80492 | 36883 ft | 528 kts | 157° |
| 2026-04-30 09:47 | 40.74394 | 113.84598 | 36889 ft | 528 kts | 157° |
| 2026-04-30 09:48 | 40.67729 | 113.88716 | 36882 ft | 527 kts | 157° |
| 2026-04-30 09:48 | 40.61075 | 113.92819 | 36881 ft | 527 kts | 157° |
| 2026-04-30 09:49 | 40.54463 | 113.96888 | 36882 ft | 526 kts | 157° |
| 2026-04-30 09:49 | 40.47827 | 114.00952 | 36873 ft | 526 kts | 158° |
| 2026-04-30 09:50 | 40.41140 | 114.04714 | 36873 ft | 523 kts | 164° |
| 2026-04-30 09:50 | 40.34114 | 114.07043 | 36904 ft | 518 kts | 174° |
| 2026-04-30 09:51 | 40.27009 | 114.08735 | 36883 ft | 520 kts | 173° |
| 2026-04-30 09:51 | 40.19916 | 114.10545 | 36863 ft | 521 kts | 172° |
| 2026-04-30 09:52 | 40.12803 | 114.12368 | 36882 ft | 521 kts | 172° |
| 2026-04-30 09:52 | 40.05697 | 114.14172 | 36884 ft | 522 kts | 172° |
| 2026-04-30 09:53 | 39.98588 | 114.16014 | 36874 ft | 523 kts | 172° |
| 2026-04-30 09:53 | 39.91440 | 114.17913 | 36895 ft | 524 kts | 172° |
| 2026-04-30 09:54 | 39.84292 | 114.19807 | 36881 ft | 525 kts | 172° |
| 2026-04-30 09:54 | 39.77154 | 114.21685 | 36891 ft | 525 kts | 172° |
| 2026-04-30 09:55 | 39.69991 | 114.23562 | 36905 ft | 525 kts | 172° |
| 2026-04-30 09:55 | 39.62841 | 114.25431 | 36905 ft | 526 kts | 172° |
| 2026-04-30 09:56 | 39.56810 | 114.27007 | 36885 ft | 526 kts | 172° |
| 2026-04-30 09:56 | 39.49645 | 114.28876 | 36903 ft | 527 kts | 172° |
| 2026-04-30 09:57 | 39.42474 | 114.30741 | 36908 ft | 527 kts | 172° |
| 2026-04-30 09:57 | 39.35291 | 114.32603 | 36908 ft | 528 kts | 172° |
| 2026-04-30 09:58 | 39.28079 | 114.34458 | 36907 ft | 528 kts | 172° |
| 2026-04-30 09:58 | 39.20899 | 114.36329 | 36911 ft | 528 kts | 172° |
| 2026-04-30 09:59 | 39.06476 | 114.39982 | 36912 ft | 528 kts | 172° |
| 2026-04-30 10:00 | 38.95689 | 114.42734 | 36869 ft | 527 kts | 172° |
| 2026-04-30 10:01 | 38.84886 | 114.45502 | 36890 ft | 529 kts | 172° |
| 2026-04-30 10:02 | 38.73992 | 114.48264 | 36887 ft | 532 kts | 172° |
| 2026-04-30 10:02 | 38.66752 | 114.50080 | 36878 ft | 533 kts | 172° |
| 2026-04-30 10:03 | 38.59489 | 114.51902 | 36884 ft | 533 kts | 172° |
| 2026-04-30 10:03 | 38.52162 | 114.53780 | 36879 ft | 534 kts | 172° |
| 2026-04-30 10:04 | 38.44922 | 114.55648 | 36882 ft | 533 kts | 172° |
| 2026-04-30 10:04 | 38.37642 | 114.57345 | 36882 ft | 532 kts | 173° |
| 2026-04-30 10:05 | 38.30345 | 114.58935 | 36986 ft | 534 kts | 173° |
| 2026-04-30 10:05 | 38.26664 | 114.59741 | 37347 ft | 534 kts | 173° |
| 2026-04-30 10:05 | 38.22995 | 114.60553 | 37788 ft | 531 kts | 173° |
| 2026-04-30 10:05 | 38.19378 | 114.61359 | 38157 ft | 531 kts | 173° |
| 2026-04-30 10:06 | 38.15765 | 114.62168 | 38533 ft | 530 kts | 174° |
| 2026-04-30 10:06 | 38.12120 | 114.62984 | 38788 ft | 529 kts | 173° |
| 2026-04-30 10:06 | 38.08472 | 114.63800 | 38833 ft | 532 kts | 173° |
| 2026-04-30 10:07 | 38.01176 | 114.65427 | 38876 ft | 530 kts | 174° |
| 2026-04-30 10:07 | 37.93956 | 114.67035 | 38880 ft | 529 kts | 174° |
| 2026-04-30 10:08 | 37.86687 | 114.68648 | 38893 ft | 529 kts | 174° |
| 2026-04-30 10:08 | 37.79460 | 114.70248 | 38892 ft | 529 kts | 174° |
| 2026-04-30 10:09 | 37.72188 | 114.71856 | 38884 ft | 529 kts | 174° |
| 2026-04-30 10:09 | 37.64941 | 114.73455 | 38897 ft | 530 kts | 174° |
| 2026-04-30 10:10 | 37.57660 | 114.75059 | 38896 ft | 531 kts | 174° |
| 2026-04-30 10:10 | 37.50400 | 114.76655 | 38890 ft | 532 kts | 174° |
| 2026-04-30 10:11 | 37.43072 | 114.78239 | 38911 ft | 533 kts | 174° |
| 2026-04-30 10:11 | 37.35774 | 114.79798 | 38901 ft | 534 kts | 174° |
| 2026-04-30 10:12 | 37.28416 | 114.81374 | 38892 ft | 535 kts | 174° |
| 2026-04-30 10:12 | 37.21095 | 114.83031 | 38905 ft | 536 kts | 173° |
| 2026-04-30 10:13 | 37.13724 | 114.84777 | 38906 ft | 537 kts | 173° |
| 2026-04-30 10:13 | 37.06396 | 114.86502 | 38899 ft | 538 kts | 174° |
| 2026-04-30 10:14 | 36.99056 | 114.88209 | 38906 ft | 538 kts | 174° |
| 2026-04-30 10:14 | 36.87980 | 114.90771 | 38907 ft | 539 kts | 174° |
| 2026-04-30 10:15 | 36.80617 | 114.92471 | 38903 ft | 539 kts | 174° |
| 2026-04-30 10:15 | 36.73227 | 114.94175 | 38916 ft | 539 kts | 174° |
| 2026-04-30 10:16 | 36.65861 | 114.95870 | 38915 ft | 539 kts | 174° |
| 2026-04-30 10:17 | 36.54795 | 114.98410 | 38914 ft | 539 kts | 174° |
| 2026-04-30 10:17 | 36.43803 | 115.00927 | 38930 ft | 540 kts | 174° |
| 2026-04-30 10:18 | 36.36407 | 115.02322 | 38921 ft | 536 kts | 181° |
| 2026-04-30 10:19 | 36.25373 | 115.01869 | 38924 ft | 526 kts | 192° |
| 2026-04-30 10:19 | 36.18095 | 115.01037 | 38914 ft | 527 kts | 192° |
| 2026-04-30 10:20 | 36.10744 | 115.00242 | 38911 ft | 528 kts | 192° |
| 2026-04-30 10:20 | 35.99744 | 114.99115 | 38925 ft | 530 kts | 191° |
| 2026-04-30 10:21 | 35.92414 | 114.98372 | 38942 ft | 530 kts | 191° |
| 2026-04-30 10:21 | 35.85065 | 114.97626 | 38929 ft | 530 kts | 191° |
| 2026-04-30 10:22 | 35.77699 | 114.96878 | 38924 ft | 530 kts | 191° |
| 2026-04-30 10:22 | 35.70331 | 114.96131 | 38911 ft | 529 kts | 191° |
| 2026-04-30 10:23 | 35.63042 | 114.95393 | 38925 ft | 528 kts | 191° |
| 2026-04-30 10:23 | 35.55727 | 114.94654 | 38932 ft | 527 kts | 191° |
| 2026-04-30 10:24 | 35.48420 | 114.93917 | 38917 ft | 527 kts | 191° |
| 2026-04-30 10:24 | 35.41108 | 114.93180 | 38930 ft | 526 kts | 191° |
| 2026-04-30 10:25 | 35.33810 | 114.92446 | 38938 ft | 526 kts | 191° |
| 2026-04-30 10:25 | 35.26492 | 114.91712 | 38933 ft | 527 kts | 192° |
| 2026-04-30 10:26 | 35.19187 | 114.90980 | 38945 ft | 527 kts | 192° |
| 2026-04-30 10:26 | 35.11902 | 114.90251 | 38953 ft | 528 kts | 192° |
| 2026-04-30 10:27 | 35.04578 | 114.89520 | 38927 ft | 528 kts | 192° |
| 2026-04-30 10:27 | 34.97265 | 114.88792 | 38954 ft | 528 kts | 192° |
| 2026-04-30 10:28 | 34.89936 | 114.88064 | 38965 ft | 529 kts | 192° |
| 2026-04-30 10:28 | 34.82614 | 114.87336 | 38964 ft | 529 kts | 192° |
| 2026-04-30 10:29 | 34.75246 | 114.86607 | 38960 ft | 529 kts | 192° |
| 2026-04-30 10:29 | 34.67952 | 114.85886 | 38973 ft | 529 kts | 192° |
| 2026-04-30 10:30 | 34.60616 | 114.85161 | 38973 ft | 529 kts | 192° |
| 2026-04-30 10:30 | 34.53286 | 114.84440 | 38969 ft | 529 kts | 193° |
| 2026-04-30 10:31 | 34.45936 | 114.83717 | 38978 ft | 529 kts | 193° |
| 2026-04-30 10:31 | 34.38602 | 114.82996 | 38985 ft | 529 kts | 193° |
| 2026-04-30 10:32 | 34.31275 | 114.82278 | 38985 ft | 528 kts | 193° |
| 2026-04-30 10:32 | 34.23962 | 114.81562 | 38989 ft | 528 kts | 193° |
| 2026-04-30 10:33 | 34.16601 | 114.80842 | 38992 ft | 528 kts | 193° |
| 2026-04-30 10:33 | 34.09277 | 114.80147 | 38983 ft | 528 kts | 193° |
| 2026-04-30 10:34 | 34.01988 | 114.79465 | 38994 ft | 527 kts | 193° |
| 2026-04-30 10:34 | 33.94691 | 114.78778 | 39005 ft | 527 kts | 193° |
| 2026-04-30 10:35 | 33.87387 | 114.78090 | 38999 ft | 527 kts | 193° |
| 2026-04-30 10:35 | 33.80071 | 114.77386 | 39009 ft | 527 kts | 194° |
| 2026-04-30 10:36 | 33.72776 | 114.76640 | 39010 ft | 527 kts | 194° |
| 2026-04-30 10:36 | 33.65473 | 114.75943 | 38988 ft | 528 kts | 193° |
| 2026-04-30 10:37 | 33.58143 | 114.75304 | 38994 ft | 526 kts | 194° |
| 2026-04-30 10:37 | 33.50874 | 114.74505 | 39008 ft | 525 kts | 194° |
| 2026-04-30 10:38 | 33.43589 | 114.73727 | 39015 ft | 526 kts | 193° |
| 2026-04-30 10:38 | 33.36320 | 114.73066 | 39013 ft | 524 kts | 194° |
| 2026-04-30 10:39 | 33.32726 | 114.72748 | 38974 ft | 508 kts | 194° |
| 2026-04-30 10:39 | 33.29266 | 114.72433 | 38999 ft | 496 kts | 194° |
| 2026-04-30 10:39 | 33.22497 | 114.71792 | 39002 ft | 477 kts | 195° |
| 2026-04-30 10:40 | 33.16032 | 114.71171 | 38999 ft | 458 kts | 196° |
| 2026-04-30 10:40 | 33.09767 | 114.70548 | 39002 ft | 441 kts | 197° |
| 2026-04-30 10:41 | 33.03758 | 114.69943 | 38915 ft | 429 kts | 197° |
| 2026-04-30 10:41 | 33.00802 | 114.69641 | 38650 ft | 430 kts | 197° |
| 2026-04-30 10:41 | 32.97790 | 114.69333 | 38295 ft | 433 kts | 197° |
| 2026-04-30 10:42 | 32.94816 | 114.69034 | 38031 ft | 432 kts | 197° |
| 2026-04-30 10:42 | 32.92827 | 114.68839 | 37936 ft | 429 kts | 197° |
| 2026-04-30 10:42 | 32.86925 | 114.68264 | 37775 ft | 420 kts | 198° |
| 2026-04-30 10:43 | 32.83067 | 114.67895 | 37410 ft | 423 kts | 197° |
| 2026-04-30 10:43 | 32.81083 | 114.67706 | 37224 ft | 424 kts | 197° |
| 2026-04-30 10:43 | 32.78164 | 114.67431 | 37045 ft | 425 kts | 197° |
| 2026-04-30 10:43 | 32.75220 | 114.67152 | 37250 ft | 427 kts | 197° |
| 2026-04-30 10:44 | 32.72233 | 114.66873 | 37530 ft | 427 kts | 197° |
| 2026-04-30 10:44 | 32.69290 | 114.66599 | 37758 ft | 427 kts | 197° |
| 2026-04-30 10:44 | 32.66307 | 114.66321 | 38033 ft | 427 kts | 198° |
| 2026-04-30 10:44 | 32.63370 | 114.66046 | 38307 ft | 427 kts | 198° |
| 2026-04-30 10:45 | 32.60427 | 114.65771 | 38576 ft | 426 kts | 198° |
| 2026-04-30 10:45 | 32.57462 | 114.65494 | 38794 ft | 426 kts | 198° |
| 2026-04-30 10:45 | 32.51500 | 114.64929 | 38976 ft | 433 kts | 198° |
| 2026-04-30 10:46 | 32.45435 | 114.64358 | 39013 ft | 443 kts | 197° |
| 2026-04-30 10:46 | 32.39235 | 114.63779 | 39063 ft | 455 kts | 197° |
| 2026-04-30 10:47 | 32.32844 | 114.63162 | 39070 ft | 468 kts | 197° |
| 2026-04-30 10:47 | 32.26259 | 114.62511 | 39068 ft | 482 kts | 197° |
| 2026-04-30 10:48 | 32.19440 | 114.61844 | 39043 ft | 496 kts | 196° |
| 2026-04-30 10:48 | 32.12528 | 114.61176 | 39073 ft | 508 kts | 196° |
| 2026-04-30 10:49 | 32.05370 | 114.60487 | 39072 ft | 520 kts | 195° |
| 2026-04-30 10:49 | 31.98170 | 114.59800 | 39070 ft | 524 kts | 195° |
| 2026-04-30 10:50 | 31.90905 | 114.59109 | 39063 ft | 523 kts | 196° |
| 2026-04-30 10:50 | 31.83661 | 114.58414 | 39063 ft | 522 kts | 196° |
| 2026-04-30 10:51 | 31.76425 | 114.57718 | 39070 ft | 521 kts | 196° |
| 2026-04-30 10:51 | 31.69229 | 114.57027 | 39057 ft | 518 kts | 196° |
| 2026-04-30 10:52 | 31.62048 | 114.56337 | 39079 ft | 515 kts | 196° |
| 2026-04-30 10:52 | 31.54892 | 114.55644 | 39076 ft | 513 kts | 196° |
| 2026-04-30 10:53 | 31.47801 | 114.54958 | 39084 ft | 512 kts | 196° |
| 2026-04-30 10:53 | 31.40717 | 114.54272 | 39084 ft | 512 kts | 196° |
| 2026-04-30 10:54 | 31.33606 | 114.53586 | 39081 ft | 512 kts | 196° |
| 2026-04-30 10:54 | 31.26542 | 114.52773 | 39080 ft | 504 kts | 202° |
| 2026-04-30 10:55 | 31.23151 | 114.51886 | 38955 ft | 493 kts | 207° |
| 2026-04-30 10:55 | 31.19916 | 114.50704 | 39020 ft | 483 kts | 212° |
| 2026-04-30 10:55 | 31.16810 | 114.49232 | 39060 ft | 471 kts | 218° |
| 2026-04-30 10:55 | 31.13917 | 114.47570 | 39070 ft | 468 kts | 219° |
| 2026-04-30 10:56 | 31.08109 | 114.44102 | 39082 ft | 467 kts | 219° |
| 2026-04-30 10:56 | 31.02314 | 114.40690 | 39081 ft | 467 kts | 219° |
| 2026-04-30 10:57 | 30.96509 | 114.37322 | 39073 ft | 466 kts | 218° |
| 2026-04-30 10:57 | 30.90682 | 114.33978 | 39055 ft | 468 kts | 216° |
| 2026-04-30 10:58 | 30.84693 | 114.30872 | 39053 ft | 470 kts | 215° |
| 2026-04-30 10:58 | 30.78764 | 114.27767 | 39051 ft | 469 kts | 216° |
| 2026-04-30 10:59 | 30.72860 | 114.24557 | 39042 ft | 468 kts | 216° |
| 2026-04-30 10:59 | 30.66962 | 114.21348 | 39051 ft | 469 kts | 216° |
| 2026-04-30 11:00 | 30.61027 | 114.18140 | 39062 ft | 470 kts | 216° |
| 2026-04-30 11:00 | 30.55133 | 114.14911 | 39072 ft | 469 kts | 216° |
| 2026-04-30 11:01 | 30.49233 | 114.11664 | 39072 ft | 470 kts | 215° |
| 2026-04-30 11:01 | 30.43270 | 114.08474 | 39088 ft | 471 kts | 214° |
| 2026-04-30 11:02 | 30.37321 | 114.05286 | 39076 ft | 472 kts | 214° |
| 2026-04-30 11:02 | 30.31346 | 114.02076 | 39085 ft | 473 kts | 214° |
| 2026-04-30 11:03 | 30.25453 | 113.98912 | 39071 ft | 473 kts | 214° |
| 2026-04-30 11:04 | 30.16495 | 113.94128 | 39079 ft | 473 kts | 214° |
| 2026-04-30 11:04 | 30.10520 | 113.90945 | 39077 ft | 473 kts | 214° |
| 2026-04-30 11:05 | 30.04569 | 113.87778 | 39081 ft | 472 kts | 213° |
| 2026-04-30 11:05 | 29.98632 | 113.84622 | 39079 ft | 470 kts | 213° |
| 2026-04-30 11:06 | 29.92677 | 113.81460 | 39072 ft | 468 kts | 213° |
| 2026-04-30 11:06 | 29.86475 | 113.78954 | 39084 ft | 481 kts | 202° |
| 2026-04-30 11:07 | 29.79786 | 113.77851 | 39081 ft | 491 kts | 192° |
| 2026-04-30 11:07 | 29.72971 | 113.77437 | 39075 ft | 491 kts | 191° |
| 2026-04-30 11:08 | 29.66166 | 113.77038 | 39075 ft | 489 kts | 192° |
| 2026-04-30 11:08 | 29.59375 | 113.76586 | 39082 ft | 488 kts | 192° |
| 2026-04-30 11:09 | 29.52598 | 113.76113 | 39075 ft | 487 kts | 192° |
| 2026-04-30 11:09 | 29.45823 | 113.75640 | 39070 ft | 486 kts | 192° |
| 2026-04-30 11:10 | 29.39075 | 113.75174 | 39088 ft | 486 kts | 192° |
| 2026-04-30 11:10 | 29.32307 | 113.74705 | 39074 ft | 486 kts | 192° |
| 2026-04-30 11:11 | 29.25559 | 113.74242 | 39081 ft | 485 kts | 192° |
| 2026-04-30 11:11 | 29.18778 | 113.74149 | 39080 ft | 491 kts | 186° |
| 2026-04-30 11:12 | 29.11975 | 113.74385 | 39079 ft | 491 kts | 186° |
| 2026-04-30 11:12 | 29.05115 | 113.74617 | 39074 ft | 491 kts | 186° |
| 2026-04-30 11:13 | 28.98294 | 113.74816 | 39077 ft | 490 kts | 186° |
| 2026-04-30 11:13 | 28.91463 | 113.75004 | 39096 ft | 490 kts | 187° |
| 2026-04-30 11:14 | 28.84635 | 113.75194 | 39076 ft | 491 kts | 187° |
| 2026-04-30 11:14 | 28.77842 | 113.75386 | 39067 ft | 491 kts | 187° |
| 2026-04-30 11:15 | 28.71036 | 113.75375 | 39075 ft | 484 kts | 191° |
| 2026-04-30 11:15 | 28.64332 | 113.74865 | 39086 ft | 483 kts | 192° |
| 2026-04-30 11:16 | 28.57647 | 113.74330 | 39080 ft | 483 kts | 192° |
| 2026-04-30 11:16 | 28.50937 | 113.73832 | 39089 ft | 483 kts | 191° |
| 2026-04-30 11:17 | 28.44215 | 113.73347 | 39084 ft | 483 kts | 191° |
| 2026-04-30 11:17 | 28.37537 | 113.72865 | 39085 ft | 482 kts | 191° |
| 2026-04-30 11:18 | 28.30831 | 113.72379 | 39086 ft | 481 kts | 191° |
| 2026-04-30 11:18 | 28.20818 | 113.71643 | 39079 ft | 480 kts | 191° |
| 2026-04-30 11:19 | 28.14134 | 113.71115 | 39084 ft | 480 kts | 191° |
| 2026-04-30 11:19 | 28.07490 | 113.70579 | 39087 ft | 480 kts | 192° |
| 2026-04-30 11:20 | 28.00754 | 113.70013 | 39088 ft | 479 kts | 192° |
| 2026-04-30 11:20 | 27.94080 | 113.69402 | 39079 ft | 478 kts | 192° |
| 2026-04-30 11:21 | 27.87453 | 113.68793 | 39086 ft | 478 kts | 192° |
| 2026-04-30 11:21 | 27.80819 | 113.68191 | 39090 ft | 478 kts | 192° |
| 2026-04-30 11:22 | 27.74226 | 113.67595 | 39090 ft | 479 kts | 192° |
| 2026-04-30 11:22 | 27.67573 | 113.66995 | 39073 ft | 479 kts | 192° |
| 2026-04-30 11:23 | 27.60865 | 113.66559 | 39087 ft | 482 kts | 188° |
| 2026-04-30 11:24 | 27.51890 | 113.66404 | 39099 ft | 483 kts | 188° |
| 2026-04-30 11:24 | 27.45197 | 113.66288 | 39101 ft | 483 kts | 188° |
| 2026-04-30 11:25 | 27.35087 | 113.66071 | 39083 ft | 483 kts | 188° |
| 2026-04-30 11:26 | 27.21655 | 113.65789 | 39101 ft | 485 kts | 187° |
| 2026-04-30 11:26 | 27.14835 | 113.66544 | 39077 ft | 497 kts | 175° |
| 2026-04-30 11:27 | 27.08093 | 113.68488 | 39098 ft | 501 kts | 171° |
| 2026-04-30 11:27 | 27.01373 | 113.70564 | 39099 ft | 502 kts | 171° |
| 2026-04-30 11:28 | 26.91266 | 113.73579 | 39100 ft | 501 kts | 172° |
| 2026-04-30 11:29 | 26.84520 | 113.75562 | 39077 ft | 501 kts | 172° |
| 2026-04-30 11:29 | 26.74386 | 113.78544 | 39093 ft | 501 kts | 172° |
| 2026-04-30 11:30 | 26.64331 | 113.81681 | 39101 ft | 501 kts | 170° |
| 2026-04-30 11:31 | 26.57561 | 113.83829 | 39101 ft | 500 kts | 171° |
| 2026-04-30 11:31 | 26.50873 | 113.85926 | 39102 ft | 499 kts | 170° |
| 2026-04-30 11:32 | 26.44161 | 113.87938 | 39108 ft | 498 kts | 172° |
| 2026-04-30 11:32 | 26.37453 | 113.89847 | 39115 ft | 498 kts | 171° |
| 2026-04-30 11:33 | 26.27363 | 113.92737 | 39111 ft | 499 kts | 172° |
| 2026-04-30 11:33 | 26.20639 | 113.94677 | 39099 ft | 499 kts | 172° |
| 2026-04-30 11:34 | 26.13907 | 113.96618 | 39112 ft | 499 kts | 172° |
| 2026-04-30 11:34 | 26.07215 | 113.98543 | 39103 ft | 498 kts | 172° |
| 2026-04-30 11:35 | 26.00514 | 114.00471 | 39099 ft | 497 kts | 171° |
| 2026-04-30 11:35 | 25.93827 | 114.02445 | 39099 ft | 497 kts | 171° |
| 2026-04-30 11:36 | 25.87170 | 114.04431 | 39112 ft | 495 kts | 171° |
| 2026-04-30 11:36 | 25.80516 | 114.06407 | 39105 ft | 494 kts | 171° |
| 2026-04-30 11:37 | 25.73867 | 114.08374 | 39121 ft | 494 kts | 171° |
| 2026-04-30 11:37 | 25.67216 | 114.10340 | 39084 ft | 495 kts | 171° |
| 2026-04-30 11:38 | 25.60556 | 114.12305 | 39100 ft | 496 kts | 171° |
| 2026-04-30 11:38 | 25.53881 | 114.14272 | 39097 ft | 496 kts | 171° |
| 2026-04-30 11:39 | 25.47218 | 114.16234 | 39107 ft | 495 kts | 171° |
| 2026-04-30 11:39 | 25.40576 | 114.18188 | 39107 ft | 495 kts | 171° |
| 2026-04-30 11:40 | 25.33901 | 114.20149 | 39094 ft | 495 kts | 171° |
| 2026-04-30 11:40 | 25.27243 | 114.22103 | 39101 ft | 494 kts | 171° |
| 2026-04-30 11:41 | 25.20644 | 114.24038 | 39097 ft | 493 kts | 171° |
| 2026-04-30 11:41 | 25.14026 | 114.25947 | 39096 ft | 490 kts | 174° |
| 2026-04-30 11:42 | 25.07318 | 114.26553 | 39085 ft | 478 kts | 188° |
| 2026-04-30 11:42 | 25.00804 | 114.25544 | 39097 ft | 469 kts | 197° |
| 2026-04-30 11:43 | 24.94444 | 114.24090 | 39096 ft | 470 kts | 197° |
| 2026-04-30 11:43 | 24.88021 | 114.22644 | 39090 ft | 471 kts | 197° |
| 2026-04-30 11:44 | 24.81581 | 114.21238 | 39087 ft | 471 kts | 196° |
| 2026-04-30 11:44 | 24.75147 | 114.19850 | 39092 ft | 471 kts | 196° |
| 2026-04-30 11:45 | 24.68733 | 114.18465 | 39089 ft | 472 kts | 196° |
| 2026-04-30 11:45 | 24.62283 | 114.17073 | 39079 ft | 472 kts | 196° |
| 2026-04-30 11:46 | 24.55858 | 114.15689 | 39085 ft | 472 kts | 196° |
| 2026-04-30 11:46 | 24.49393 | 114.14296 | 39070 ft | 472 kts | 196° |
| 2026-04-30 11:47 | 24.42968 | 114.12913 | 39070 ft | 472 kts | 196° |
| 2026-04-30 11:47 | 24.36520 | 114.11527 | 39080 ft | 471 kts | 196° |
| 2026-04-30 11:48 | 24.30177 | 114.09802 | 39077 ft | 468 kts | 200° |
| 2026-04-30 11:48 | 24.23929 | 114.07866 | 39054 ft | 468 kts | 200° |
| 2026-04-30 11:49 | 24.17673 | 114.05932 | 39060 ft | 468 kts | 200° |
| 2026-04-30 11:49 | 24.11378 | 114.04011 | 39061 ft | 468 kts | 200° |
| 2026-04-30 11:50 | 24.05109 | 114.02109 | 39058 ft | 468 kts | 200° |
| 2026-04-30 11:50 | 23.98827 | 114.00205 | 39056 ft | 468 kts | 200° |
| 2026-04-30 11:51 | 23.92578 | 113.98311 | 39045 ft | 468 kts | 199° |
| 2026-04-30 11:51 | 23.86293 | 113.96409 | 39058 ft | 468 kts | 199° |
| 2026-04-30 11:52 | 23.79996 | 113.94505 | 39038 ft | 468 kts | 199° |
| 2026-04-30 11:52 | 23.73742 | 113.92616 | 39039 ft | 468 kts | 199° |
| 2026-04-30 11:53 | 23.67467 | 113.90723 | 39023 ft | 469 kts | 199° |
| 2026-04-30 11:53 | 23.61198 | 113.88832 | 39034 ft | 468 kts | 199° |
| 2026-04-30 11:54 | 23.54907 | 113.86937 | 39031 ft | 467 kts | 199° |
| 2026-04-30 11:54 | 23.48638 | 113.85049 | 39039 ft | 467 kts | 199° |
| 2026-04-30 11:55 | 23.42405 | 113.83163 | 39028 ft | 467 kts | 199° |
| 2026-04-30 11:55 | 23.36129 | 113.81262 | 39024 ft | 467 kts | 199° |
| 2026-04-30 11:56 | 23.29839 | 113.79360 | 39017 ft | 467 kts | 199° |
| 2026-04-30 11:56 | 23.23615 | 113.77481 | 38968 ft | 465 kts | 199° |
| 2026-04-30 11:57 | 23.20497 | 113.76541 | 38726 ft | 464 kts | 199° |
| 2026-04-30 11:57 | 23.17378 | 113.75600 | 38327 ft | 466 kts | 199° |
| 2026-04-30 11:57 | 23.14222 | 113.74646 | 37908 ft | 471 kts | 199° |
| 2026-04-30 11:57 | 23.11091 | 113.73698 | 37595 ft | 474 kts | 199° |
| 2026-04-30 11:58 | 23.07909 | 113.72736 | 37453 ft | 473 kts | 199° |
| 2026-04-30 11:58 | 23.04732 | 113.71778 | 37358 ft | 472 kts | 199° |
| 2026-04-30 11:58 | 23.01572 | 113.70828 | 37211 ft | 472 kts | 199° |
| 2026-04-30 11:58 | 22.98402 | 113.69876 | 37014 ft | 473 kts | 199° |
| 2026-04-30 11:59 | 22.95221 | 113.68921 | 36836 ft | 473 kts | 199° |
| 2026-04-30 11:59 | 22.92079 | 113.67978 | 36634 ft | 474 kts | 199° |
| 2026-04-30 11:59 | 22.88894 | 113.67021 | 36459 ft | 474 kts | 199° |
| 2026-04-30 11:59 | 22.85713 | 113.66060 | 36273 ft | 474 kts | 199° |
| 2026-04-30 12:00 | 22.82531 | 113.65090 | 36121 ft | 473 kts | 199° |
| 2026-04-30 12:00 | 22.79409 | 113.64138 | 36075 ft | 470 kts | 200° |
| 2026-04-30 12:00 | 22.76246 | 113.63174 | 35890 ft | 470 kts | 200° |
| 2026-04-30 12:00 | 22.73107 | 113.62219 | 35647 ft | 471 kts | 200° |
| 2026-04-30 12:01 | 22.69928 | 113.61254 | 35413 ft | 472 kts | 200° |
| 2026-04-30 12:01 | 22.66789 | 113.60302 | 35183 ft | 473 kts | 200° |
| 2026-04-30 12:01 | 22.63600 | 113.59337 | 34970 ft | 473 kts | 200° |
| 2026-04-30 12:01 | 22.60415 | 113.58375 | 34597 ft | 474 kts | 200° |
| 2026-04-30 12:02 | 22.57241 | 113.57416 | 33573 ft | 480 kts | 200° |
| 2026-04-30 12:02 | 22.54017 | 113.56444 | 32541 ft | 480 kts | 200° |
| 2026-04-30 12:02 | 22.50788 | 113.55466 | 31517 ft | 480 kts | 200° |
| 2026-04-30 12:02 | 22.47603 | 113.54490 | 30520 ft | 481 kts | 199° |
| 2026-04-30 12:03 | 22.44380 | 113.53499 | 29746 ft | 476 kts | 199° |
| 2026-04-30 12:03 | 22.38066 | 113.51560 | 28192 ft | 467 kts | 199° |
| 2026-04-30 12:03 | 22.34972 | 113.50611 | 27494 ft | 461 kts | 199° |
| 2026-04-30 12:04 | 22.31906 | 113.49672 | 26772 ft | 457 kts | 199° |
| 2026-04-30 12:04 | 22.28834 | 113.48731 | 26004 ft | 454 kts | 199° |
| 2026-04-30 12:04 | 22.25813 | 113.47885 | 25318 ft | 450 kts | 194° |
| 2026-04-30 12:04 | 22.22662 | 113.47595 | 24649 ft | 452 kts | 183° |
| 2026-04-30 12:05 | 22.19571 | 113.47852 | 24186 ft | 448 kts | 175° |
| 2026-04-30 12:05 | 22.16593 | 113.48602 | 23926 ft | 428 kts | 166° |
| 2026-04-30 12:05 | 22.13846 | 113.49631 | 23396 ft | 406 kts | 165° |
| 2026-04-30 12:05 | 22.11199 | 113.50641 | 22686 ft | 407 kts | 165° |
| 2026-04-30 12:06 | 22.08535 | 113.51643 | 22254 ft | 403 kts | 165° |
| 2026-04-30 12:06 | 22.06787 | 113.52291 | 21990 ft | 399 kts | 165° |
| 2026-04-30 12:06 | 22.04161 | 113.53252 | 21553 ft | 395 kts | 166° |
| 2026-04-30 12:06 | 22.01555 | 113.54195 | 21067 ft | 393 kts | 166° |
| 2026-04-30 12:07 | 21.99001 | 113.55119 | 20575 ft | 392 kts | 166° |
| 2026-04-30 12:07 | 21.96429 | 113.56147 | 20075 ft | 392 kts | 162° |
| 2026-04-30 12:07 | 21.93950 | 113.57292 | 19483 ft | 381 kts | 160° |
| 2026-04-30 12:07 | 21.91539 | 113.58445 | 18604 ft | 382 kts | 160° |
| 2026-04-30 12:08 | 21.89086 | 113.59610 | 17932 ft | 387 kts | 160° |
| 2026-04-30 12:08 | 21.86644 | 113.60756 | 17476 ft | 383 kts | 161° |
| 2026-04-30 12:08 | 21.84217 | 113.61886 | 17091 ft | 377 kts | 161° |
| 2026-04-30 12:08 | 21.81809 | 113.62999 | 16642 ft | 374 kts | 161° |
| 2026-04-30 12:09 | 21.79419 | 113.64099 | 16158 ft | 372 kts | 161° |
| 2026-04-30 12:09 | 21.77043 | 113.65191 | 15665 ft | 370 kts | 161° |
| 2026-04-30 12:09 | 21.74720 | 113.66285 | 15185 ft | 364 kts | 156° |
| 2026-04-30 12:09 | 21.72682 | 113.67949 | 14528 ft | 376 kts | 133° |
| 2026-04-30 12:10 | 21.71363 | 113.70383 | 14045 ft | 379 kts | 110° |
| 2026-04-30 12:10 | 21.70937 | 113.73168 | 13657 ft | 375 kts | 88° |
| 2026-04-30 12:10 | 21.71435 | 113.75869 | 13217 ft | 369 kts | 66° |
| 2026-04-30 12:10 | 21.72724 | 113.78230 | 12757 ft | 361 kts | 46° |
| 2026-04-30 12:11 | 21.74505 | 113.80069 | 12227 ft | 355 kts | 38° |
| 2026-04-30 12:11 | 21.76373 | 113.81826 | 11684 ft | 355 kts | 38° |
| 2026-04-30 12:11 | 21.78226 | 113.83577 | 11235 ft | 353 kts | 39° |
| 2026-04-30 12:11 | 21.80029 | 113.85317 | 10814 ft | 350 kts | 39° |
| 2026-04-30 12:12 | 21.81831 | 113.87073 | 10351 ft | 347 kts | 39° |
| 2026-04-30 12:12 | 21.83755 | 113.88505 | 9944 ft | 325 kts | 19° |
| 2026-04-30 12:12 | 21.85848 | 113.88986 | 9521 ft | 294 kts | 357° |
| 2026-04-30 12:12 | 21.87841 | 113.88802 | 8953 ft | 285 kts | 344° |
| 2026-04-30 12:13 | 21.89666 | 113.88141 | 8589 ft | 277 kts | 333° |
| 2026-04-30 12:13 | 21.91401 | 113.87280 | 8287 ft | 270 kts | 332° |
| 2026-04-30 12:13 | 21.93091 | 113.86416 | 8014 ft | 267 kts | 332° |
| 2026-04-30 12:13 | 21.94774 | 113.85556 | 7746 ft | 267 kts | 332° |
| 2026-04-30 12:14 | 21.96462 | 113.84698 | 7481 ft | 268 kts | 332° |
| 2026-04-30 12:14 | 21.98135 | 113.83854 | 7214 ft | 270 kts | 333° |
| 2026-04-30 12:14 | 21.99843 | 113.82997 | 6938 ft | 270 kts | 333° |
| 2026-04-30 12:14 | 22.01542 | 113.82145 | 6659 ft | 268 kts | 333° |
| 2026-04-30 12:15 | 22.03235 | 113.81301 | 6388 ft | 266 kts | 333° |
| 2026-04-30 12:15 | 22.04908 | 113.80468 | 6091 ft | 263 kts | 333° |
| 2026-04-30 12:15 | 22.06539 | 113.79655 | 5817 ft | 259 kts | 334° |
| 2026-04-30 12:15 | 22.08171 | 113.78842 | 5555 ft | 256 kts | 334° |
| 2026-04-30 12:16 | 22.09785 | 113.78037 | 5292 ft | 253 kts | 334° |
| 2026-04-30 12:16 | 22.11378 | 113.77242 | 5042 ft | 251 kts | 334° |
| 2026-04-30 12:16 | 22.12951 | 113.76458 | 4776 ft | 245 kts | 334° |
| 2026-04-30 12:16 | 22.14462 | 113.75704 | 4515 ft | 239 kts | 335° |
| 2026-04-30 12:17 | 22.17408 | 113.74233 | 4022 ft | 227 kts | 336° |
| 2026-04-30 12:17 | 22.18822 | 113.73526 | 3791 ft | 219 kts | 336° |
| 2026-04-30 12:17 | 22.20166 | 113.72856 | 3572 ft | 211 kts | 337° |
| 2026-04-30 12:18 | 22.21470 | 113.72204 | 3361 ft | 202 kts | 337° |
| 2026-04-30 12:18 | 22.22739 | 113.71662 | 3152 ft | 188 kts | 356° |
| 2026-04-30 12:18 | 22.23977 | 113.71913 | 3045 ft | 182 kts | 30° |
| 2026-04-30 12:18 | 22.25011 | 113.72725 | 2850 ft | 186 kts | 40° |
| 2026-04-30 12:19 | 22.25987 | 113.73623 | 2660 ft | 185 kts | 41° |
| 2026-04-30 12:19 | 22.26961 | 113.74530 | 2441 ft | 183 kts | 41° |
| 2026-04-30 12:19 | 22.27818 | 113.75512 | 2247 ft | 178 kts | 62° |
| 2026-04-30 12:19 | 22.28324 | 113.76681 | 2086 ft | 168 kts | 64° |
| 2026-04-30 12:20 | 22.28782 | 113.77810 | 1949 ft | 164 kts | 68° |
| 2026-04-30 12:20 | 22.29171 | 113.78946 | 1751 ft | 160 kts | 70° |
| 2026-04-30 12:20 | 22.29531 | 113.80054 | 1550 ft | 153 kts | 71° |
| 2026-04-30 12:20 | 22.29882 | 113.81147 | 1365 ft | 154 kts | 70° |
| 2026-04-30 12:21 | 22.30228 | 113.82224 | 1162 ft | 150 kts | 70° |
| 2026-04-30 12:21 | 22.30559 | 113.83257 | 968 ft | 140 kts | 69° |
| 2026-04-30 12:21 | 22.30880 | 113.84256 | 822 ft | 140 kts | 69° |
| 2026-04-30 12:21 | 22.31205 | 113.85267 | 621 ft | 145 kts | 69° |
| 2026-04-30 12:22 | 22.31524 | 113.86285 | 458 ft | 146 kts | 69° |
| 2026-04-30 12:22 | 22.31862 | 113.87329 | 292 ft | 148 kts | 69° |
| 2026-04-30 12:22 | 22.32208 | 113.88390 | 99 ft | 152 kts | 69° |
| 2026-04-30 12:22 | 22.32550 | 113.89432 | 36 ft | 135 kts | 71° |
| 2026-04-30 12:23 | 22.32803 | 113.90219 | 37 ft | 86 kts | 70° |
| 2026-04-30 12:23 | 22.32936 | 113.90674 | 37 ft | 48 kts | 82° |
| 2026-04-30 12:23 | 22.32929 | 113.90846 | 37 ft | 0 kts | 100° |
| 2026-04-30 12:24 | 22.32928 | 113.90853 | 37 ft | 5 kts | 100° |
| 2026-04-30 12:24 | 22.32912 | 113.90947 | 36 ft | 21 kts | 101° |
| 2026-04-30 12:25 | 22.32903 | 113.91102 | 37 ft | 24 kts | 71° |
| 2026-04-30 12:25 | 22.32971 | 113.91319 | 37 ft | 37 kts | 70° |
| 2026-04-30 12:25 | 22.33061 | 113.91597 | 37 ft | 29 kts | 71° |
| 2026-04-30 12:25 | 22.33133 | 113.91823 | 37 ft | 26 kts | 70° |
| 2026-04-30 12:26 | 22.33195 | 113.92015 | 37 ft | 14 kts | 70° |
| 2026-04-30 12:26 | 22.33201 | 113.92120 | 37 ft | 2 kts | 137° |
| 2026-04-30 12:26 | 22.33146 | 113.92141 | 37 ft | 14 kts | 160° |
| 2026-04-30 12:26 | 22.33003 | 113.92193 | 37 ft | 30 kts | 161° |
| 2026-04-30 12:27 | 22.32756 | 113.92286 | 37 ft | 45 kts | 161° |
| 2026-04-30 12:27 | 22.32594 | 113.92344 | 37 ft | 30 kts | 160° |
| 2026-04-30 12:27 | 22.32355 | 113.92434 | 37 ft | 35 kts | 159° |
| 2026-04-30 12:27 | 22.32187 | 113.92498 | 37 ft | 14 kts | 155° |
| 2026-04-30 12:28 | 22.32158 | 113.92552 | 37 ft | 9 kts | 67° |
| 2026-04-30 12:28 | 22.32189 | 113.92676 | 37 ft | 21 kts | 96° |
| 2026-04-30 12:28 | 22.32122 | 113.92713 | 37 ft | 18 kts | 163° |
| 2026-04-30 12:28 | 22.31978 | 113.92766 | 39 ft | 17 kts | 161° |
| 2026-04-30 12:29 | 22.31824 | 113.92825 | 37 ft | 27 kts | 155° |
| 2026-04-30 12:29 | 22.31784 | 113.92845 | 37 ft | 5 kts | 155° |
| 2026-04-30 12:29 | 22.31708 | 113.92850 | 37 ft | 16 kts | 213° |
| 2026-04-30 12:29 | 22.31667 | 113.92778 | 37 ft | 15 kts | 250° |
| 2026-04-30 12:30 | 22.31633 | 113.92625 | 37 ft | 27 kts | 256° |
| 2026-04-30 12:30 | 22.31628 | 113.92460 | 37 ft | 21 kts | 290° |
| 2026-04-30 12:30 | 22.31637 | 113.92348 | 37 ft | 12 kts | 245° |
| 2026-04-30 12:30 | 22.31592 | 113.92218 | 37 ft | 24 kts | 253° |
| 2026-04-30 12:31 | 22.31538 | 113.92042 | 37 ft | 21 kts | 251° |
| 2026-04-30 12:31 | 22.31503 | 113.91938 | 37 ft | 15 kts | 250° |
| 2026-04-30 12:31 | 22.31432 | 113.91892 | 37 ft | 13 kts | 156° |
| 2026-04-30 12:31 | 22.31295 | 113.91944 | 37 ft | 30 kts | 162° |
| 2026-04-30 12:32 | 22.31033 | 113.92041 | 37 ft | 45 kts | 161° |
| 2026-04-30 12:32 | 22.30850 | 113.92110 | 37 ft | 15 kts | 161° |
| 2026-04-30 12:32 | 22.30712 | 113.92161 | 37 ft | 19 kts | 160° |
| 2026-04-30 12:32 | 22.30681 | 113.92195 | 37 ft | 8 kts | 98° |
| 2026-04-30 12:33 | 22.30707 | 113.92310 | 37 ft | 25 kts | 71° |
| 2026-04-30 12:33 | 22.30775 | 113.92520 | 37 ft | 31 kts | 69° |
| 2026-04-30 12:33 | 22.30829 | 113.92686 | 37 ft | 17 kts | 71° |
| 2026-04-30 12:33 | 22.30893 | 113.92747 | 37 ft | 12 kts | 20° |
| 2026-04-30 12:34 | 22.30914 | 113.92757 | 37 ft | 4 kts | 24° |
| 2026-04-30 12:34 | 22.30948 | 113.92758 | 37 ft | 0 kts | 349° |
| 2026-04-30 12:34 | 22.30951 | 113.92756 | 37 ft | 3 kts | 337° |
| 2026-04-30 12:34 | 22.30978 | 113.92702 | 37 ft | 7 kts | 287° |
| 2026-04-30 12:35 | 22.30986 | 113.92678 | 37 ft | 0 kts | 294° |
| 2026-04-30 12:35 | 22.30988 | 113.92675 | 37 ft | 0 kts | 293° |